Wetterdaten: Donnerstag, 06.07.2023
Datum Zeit Temp. Aussen Temp. o. S. Temp +5cm Feuchte Auss Luftdruck Regen Sonnenschein Regendauer Solar Windben Empfang
06.07.2023 00:00 14,4 C 13,3 C 10,6 C 89 % 1016,0 hPa 0,0 l/m 0 min 0 min 0 W/m 6,4 km/h (2 Bft) 97,87 %
06.07.2023 00:02 14,3 C 13,3 C 10,6 C 89 % 1016,1 hPa 0,0 l/m 0 min 0 min 0 W/m 12,9 km/h (3 Bft) 95,00 %
06.07.2023 00:04 14,3 C 13,3 C 10,6 C 89 % 1016,1 hPa 0,0 l/m 0 min 0 min 0 W/m 3,2 km/h (1 Bft) 95,92 %
06.07.2023 00:08 14,3 C 13,3 C 10,6 C 90 % 1016,1 hPa 0,0 l/m 0 min 0 min 0 W/m 3,2 km/h (1 Bft) 94,62 %
06.07.2023 00:10 14,3 C 13,3 C 10,6 C 90 % 1016,2 hPa 0,0 l/m 0 min 0 min 0 W/m 3,2 km/h (1 Bft) 97,87 %
06.07.2023 00:12 14,3 C 13,3 C 10,6 C 90 % 1016,2 hPa 0,0 l/m 0 min 0 min 0 W/m 0,0 km/h (0 Bft) 97,87 %
06.07.2023 00:14 14,3 C 13,3 C 10,6 C 90 % 1016,2 hPa 0,0 l/m 0 min 0 min 0 W/m 3,2 km/h (1 Bft) 95,74 %
06.07.2023 00:16 14,3 C 13,3 C 10,6 C 90 % 1016,2 hPa 0,0 l/m 0 min 0 min 0 W/m 9,7 km/h (2 Bft) 97,87 %
06.07.2023 00:18 14,3 C 13,3 C 10,6 C 90 % 1016,2 hPa 0,0 l/m 0 min 0 min 0 W/m 3,2 km/h (1 Bft) 97,87 %
06.07.2023 00:20 14,2 C 13,3 C 10,6 C 90 % 1016,2 hPa 0,0 l/m 0 min 0 min 0 W/m 3,2 km/h (1 Bft) 95,74 %
06.07.2023 00:22 14,2 C 13,3 C 10,6 C 90 % 1016,2 hPa 0,0 l/m 0 min 0 min 0 W/m 9,7 km/h (2 Bft) 95,65 %
06.07.2023 00:24 14,2 C 13,3 C 10,6 C 90 % 1016,2 hPa 0,0 l/m 0 min 0 min 0 W/m 3,2 km/h (1 Bft) 97,87 %
06.07.2023 00:26 14,1 C 13,3 C 10,6 C 90 % 1016,2 hPa 0,0 l/m 0 min 0 min 0 W/m 9,7 km/h (2 Bft) 95,74 %
06.07.2023 00:34 14,0 C 13,3 C 10,0 C 90 % 1016,3 hPa 0,0 l/m 0 min 0 min 0 W/m 12,9 km/h (3 Bft) 97,56 %
06.07.2023 00:36 14,0 C 13,3 C 10,0 C 90 % 1016,3 hPa 0,0 l/m 0 min 0 min 0 W/m 9,7 km/h (2 Bft) 97,22 %
06.07.2023 00:38 14,0 C 13,3 C 10,0 C 90 % 1016,3 hPa 0,0 l/m 0 min 0 min 0 W/m 6,4 km/h (2 Bft) 95,74 %
06.07.2023 00:40 13,9 C 13,3 C 10,0 C 90 % 1016,3 hPa 0,0 l/m 0 min 0 min 0 W/m 6,4 km/h (2 Bft) 97,87 %
06.07.2023 00:42 13,9 C 12,8 C 10,0 C 90 % 1016,3 hPa 0,0 l/m 0 min 0 min 0 W/m 6,4 km/h (2 Bft) 97,87 %
06.07.2023 00:44 13,9 C 12,8 C 10,0 C 90 % 1016,3 hPa 0,0 l/m 0 min 0 min 0 W/m 6,4 km/h (2 Bft) 93,48 %
06.07.2023 00:46 13,9 C 12,8 C 10,0 C 90 % 1016,3 hPa 0,0 l/m 0 min 0 min 0 W/m 6,4 km/h (2 Bft) 97,87 %
06.07.2023 00:48 13,9 C 12,8 C 10,0 C 91 % 1016,4 hPa 0,0 l/m 0 min 0 min 0 W/m 3,2 km/h (1 Bft) 98,00 %
06.07.2023 00:50 13,8 C 12,8 C 10,0 C 91 % 1016,4 hPa 0,0 l/m 0 min 0 min 0 W/m 9,7 km/h (2 Bft) 95,74 %
06.07.2023 00:52 13,8 C 12,8 C 10,0 C 91 % 1016,4 hPa 0,0 l/m 0 min 0 min 0 W/m 3,2 km/h (1 Bft) 100,00 %
06.07.2023 00:54 13,8 C 12,8 C 10,0 C 91 % 1016,3 hPa 0,0 l/m 0 min 0 min 0 W/m 6,4 km/h (2 Bft) 100,00 %
06.07.2023 00:56 13,8 C 12,8 C 10,0 C 91 % 1016,4 hPa 0,0 l/m 0 min 0 min 0 W/m 6,4 km/h (2 Bft) 97,83 %
06.07.2023 00:58 13,8 C 12,8 C 10,0 C 91 % 1016,4 hPa 0,0 l/m 0 min 0 min 0 W/m 6,4 km/h (2 Bft) 100,00 %
06.07.2023 01:00 13,8 C 12,8 C 10,0 C 91 % 1016,4 hPa 0,0 l/m 0 min 0 min 0 W/m 3,2 km/h (1 Bft) 100,00 %
06.07.2023 01:02 13,8 C 12,8 C 10,0 C 91 % 1016,4 hPa 0,0 l/m 0 min 0 min 0 W/m 6,4 km/h (2 Bft) 97,87 %
06.07.2023 01:04 13,8 C 12,8 C 10,0 C 91 % 1016,4 hPa 0,0 l/m 0 min 0 min 0 W/m 3,2 km/h (1 Bft) 100,00 %
06.07.2023 01:06 13,7 C 12,8 C 10,0 C 91 % 1016,5 hPa 0,0 l/m 0 min 0 min 0 W/m 9,7 km/h (2 Bft) 100,00 %
06.07.2023 01:08 13,7 C 12,8 C 10,0 C 91 % 1016,5 hPa 0,0 l/m 0 min 0 min 0 W/m 6,4 km/h (2 Bft) 97,22 %
06.07.2023 01:10 13,7 C 12,8 C 10,0 C 91 % 1016,5 hPa 0,0 l/m 0 min 0 min 0 W/m 6,4 km/h (2 Bft) 100,00 %
06.07.2023 01:12 13,7 C 12,8 C 10,0 C 91 % 1016,5 hPa 0,0 l/m 0 min 0 min 0 W/m 9,7 km/h (2 Bft) 97,37 %
06.07.2023 01:14 13,7 C 12,8 C 10,0 C 91 % 1016,5 hPa 0,0 l/m 0 min 0 min 0 W/m 12,9 km/h (3 Bft) 95,74 %
06.07.2023 01:16 13,7 C 12,8 C 10,0 C 91 % 1016,5 hPa 0,0 l/m 0 min 0 min 0 W/m 6,4 km/h (2 Bft) 100,00 %
06.07.2023 01:18 13,7 C 12,8 C 10,0 C 91 % 1016,6 hPa 0,0 l/m 0 min 0 min 0 W/m 6,4 km/h (2 Bft) 97,87 %
06.07.2023 01:20 13,6 C 12,8 C 10,0 C 91 % 1016,6 hPa 0,0 l/m 0 min 0 min 0 W/m 6,4 km/h (2 Bft) 100,00 %
06.07.2023 01:22 13,6 C 12,8 C 10,0 C 91 % 1016,5 hPa 0,0 l/m 0 min 0 min 0 W/m 6,4 km/h (2 Bft) 95,74 %
06.07.2023 01:24 13,6 C 12,8 C 10,0 C 91 % 1016,5 hPa 0,0 l/m 0 min 0 min 0 W/m 6,4 km/h (2 Bft) 97,83 %
06.07.2023 01:26 13,6 C 12,8 C 10,0 C 91 % 1016,6 hPa 0,0 l/m 0 min 0 min 0 W/m 3,2 km/h (1 Bft) 93,62 %
06.07.2023 01:28 13,6 C 12,8 C 10,0 C 91 % 1016,6 hPa 0,0 l/m 0 min 0 min 0 W/m 3,2 km/h (1 Bft) 28,12 %
06.07.2023 01:30 13,6 C 12,8 C 10,0 C 91 % 1016,6 hPa 0,0 l/m 0 min 0 min 0 W/m 3,2 km/h (1 Bft) 93,62 %
06.07.2023 01:32 13,6 C 12,8 C 10,0 C 91 % 1016,6 hPa 0,0 l/m 0 min 0 min 0 W/m 6,4 km/h (2 Bft) 95,74 %
06.07.2023 01:34 13,6 C 12,8 C 10,0 C 91 % 1016,7 hPa 0,0 l/m 0 min 0 min 0 W/m 3,2 km/h (1 Bft) 95,74 %
06.07.2023 01:36 13,6 C 12,8 C 10,0 C 91 % 1016,7 hPa 0,0 l/m 0 min 0 min 0 W/m 6,4 km/h (2 Bft) 95,74 %
06.07.2023 01:38 13,5 C 12,8 C 10,0 C 91 % 1016,6 hPa 0,0 l/m 0 min 0 min 0 W/m 6,4 km/h (2 Bft) 95,74 %
06.07.2023 01:40 13,5 C 12,8 C 10,0 C 91 % 1016,7 hPa 0,0 l/m 0 min 0 min 0 W/m 3,2 km/h (1 Bft) 95,74 %
06.07.2023 01:42 13,4 C 12,8 C 10,0 C 91 % 1016,7 hPa 0,0 l/m 0 min 0 min 0 W/m 3,2 km/h (1 Bft) 92,59 %
06.07.2023 01:44 13,4 C 12,8 C 10,0 C 91 % 1016,7 hPa 0,0 l/m 0 min 0 min 0 W/m 0,0 km/h (0 Bft) 95,74 %
06.07.2023 01:46 13,4 C 12,8 C 10,0 C 91 % 1016,7 hPa 0,0 l/m 0 min 0 min 0 W/m 0,0 km/h (0 Bft) 93,48 %
06.07.2023 01:48 13,4 C 12,8 C 10,0 C 92 % 1016,7 hPa 0,0 l/m 0 min 0 min 0 W/m 3,2 km/h (1 Bft) 97,87 %
06.07.2023 01:50 13,4 C 12,8 C 10,0 C 92 % 1016,7 hPa 0,0 l/m 0 min 0 min 0 W/m 3,2 km/h (1 Bft) 97,87 %
06.07.2023 01:52 13,4 C 12,8 C 10,0 C 92 % 1016,7 hPa 0,0 l/m 0 min 0 min 0 W/m 6,4 km/h (2 Bft) 97,87 %
06.07.2023 01:54 13,4 C 12,8 C 10,0 C 92 % 1016,7 hPa 0,0 l/m 0 min 0 min 0 W/m 3,2 km/h (1 Bft) 97,22 %
06.07.2023 01:56 13,4 C 12,8 C 10,0 C 92 % 1016,7 hPa 0,0 l/m 0 min 0 min 0 W/m 3,2 km/h (1 Bft) 95,74 %
06.07.2023 01:58 13,3 C 12,8 C 10,0 C 92 % 1016,7 hPa 0,0 l/m 0 min 0 min 0 W/m 3,2 km/h (1 Bft) 97,87 %
06.07.2023 02:00 13,3 C 12,8 C 10,0 C 92 % 1016,6 hPa 0,0 l/m 0 min 0 min 0 W/m 3,2 km/h (1 Bft) 97,87 %
06.07.2023 02:02 13,3 C 12,2 C 9,4 C 92 % 1016,7 hPa 0,0 l/m 0 min 0 min 0 W/m 0,0 km/h (0 Bft) 95,74 %
06.07.2023 02:04 13,3 C 12,2 C 9,4 C 92 % 1016,7 hPa 0,0 l/m 0 min 0 min 0 W/m 3,2 km/h (1 Bft) 95,92 %
06.07.2023 02:06 13,3 C 12,2 C 9,4 C 92 % 1016,7 hPa 0,0 l/m 0 min 0 min 0 W/m 0,0 km/h (0 Bft) 96,61 %
06.07.2023 02:08 13,3 C 12,2 C 9,4 C 92 % 1016,7 hPa 0,0 l/m 0 min 0 min 0 W/m 3,2 km/h (1 Bft) 97,14 %
06.07.2023 02:10 13,3 C 12,8 C 9,4 C 92 % 1016,7 hPa 0,0 l/m 0 min 0 min 0 W/m 3,2 km/h (1 Bft) 97,87 %
06.07.2023 02:14 13,3 C 12,8 C 10,0 C 92 % 1016,7 hPa 0,0 l/m 0 min 0 min 0 W/m 3,2 km/h (1 Bft) 98,18 %
06.07.2023 02:16 13,3 C 12,8 C 9,4 C 92 % 1016,7 hPa 0,0 l/m 0 min 0 min 0 W/m 3,2 km/h (1 Bft) 95,74 %
06.07.2023 02:18 13,3 C 12,8 C 10,0 C 92 % 1016,7 hPa 0,0 l/m 0 min 0 min 0 W/m 3,2 km/h (1 Bft) 95,74 %
06.07.2023 02:20 13,3 C 12,8 C 10,0 C 92 % 1016,7 hPa 0,0 l/m 0 min 0 min 0 W/m 3,2 km/h (1 Bft) 95,74 %
06.07.2023 02:22 13,3 C 12,2 C 10,0 C 92 % 1016,7 hPa 0,0 l/m 0 min 0 min 0 W/m 0,0 km/h (0 Bft) 97,87 %
06.07.2023 02:24 13,3 C 12,2 C 10,0 C 92 % 1016,7 hPa 0,0 l/m 0 min 0 min 0 W/m 0,0 km/h (0 Bft) 97,83 %
06.07.2023 02:26 13,3 C 12,8 C 10,0 C 92 % 1016,7 hPa 0,0 l/m 0 min 0 min 0 W/m 0,0 km/h (0 Bft) 95,74 %
06.07.2023 02:28 13,2 C 12,2 C 9,4 C 92 % 1016,7 hPa 0,0 l/m 0 min 0 min 0 W/m 3,2 km/h (1 Bft) 95,74 %
06.07.2023 02:30 13,2 C 12,2 C 9,4 C 92 % 1016,7 hPa 0,0 l/m 0 min 0 min 0 W/m 3,2 km/h (1 Bft) 100,00 %
06.07.2023 02:32 13,2 C 12,2 C 9,4 C 92 % 1016,7 hPa 0,0 l/m 0 min 0 min 0 W/m 3,2 km/h (1 Bft) 100,00 %
06.07.2023 02:34 13,2 C 12,2 C 9,4 C 92 % 1016,7 hPa 0,0 l/m 0 min 0 min 0 W/m 3,2 km/h (1 Bft) 95,92 %
06.07.2023 02:36 13,2 C 12,2 C 9,4 C 92 % 1016,7 hPa 0,0 l/m 0 min 0 min 0 W/m 3,2 km/h (1 Bft) 97,87 %
06.07.2023 02:38 13,2 C 12,2 C 9,4 C 92 % 1016,7 hPa 0,0 l/m 0 min 0 min 0 W/m 3,2 km/h (1 Bft) 100,00 %
06.07.2023 02:40 13,2 C 12,2 C 9,4 C 92 % 1016,7 hPa 0,0 l/m 0 min 0 min 0 W/m 3,2 km/h (1 Bft) 100,00 %
06.07.2023 02:42 13,2 C 12,2 C 9,4 C 93 % 1016,7 hPa 0,0 l/m 0 min 0 min 0 W/m 3,2 km/h (1 Bft) 100,00 %
06.07.2023 02:44 13,2 C 12,2 C 9,4 C 93 % 1016,6 hPa 0,0 l/m 0 min 0 min 0 W/m 3,2 km/h (1 Bft) 95,65 %
06.07.2023 02:46 13,2 C 12,2 C 9,4 C 93 % 1016,8 hPa 0,0 l/m 0 min 0 min 0 W/m 0,0 km/h (0 Bft) 94,87 %
06.07.2023 02:48 13,2 C 12,2 C 9,4 C 93 % 1016,7 hPa 0,0 l/m 0 min 0 min 0 W/m 3,2 km/h (1 Bft) 95,65 %
06.07.2023 02:50 13,2 C 12,2 C 9,4 C 93 % 1016,7 hPa 0,0 l/m 0 min 0 min 0 W/m 3,2 km/h (1 Bft) 97,87 %
06.07.2023 02:52 13,1 C 12,2 C 9,4 C 93 % 1016,7 hPa 0,0 l/m 0 min 0 min 0 W/m 3,2 km/h (1 Bft) 97,87 %
06.07.2023 02:54 13,1 C 12,2 C 9,4 C 93 % 1016,7 hPa 0,0 l/m 0 min 0 min 0 W/m 0,0 km/h (0 Bft) 97,87 %
06.07.2023 02:56 13,1 C 12,2 C 9,4 C 93 % 1016,7 hPa 0,0 l/m 0 min 0 min 0 W/m 0,0 km/h (0 Bft) 95,74 %
06.07.2023 02:58 13,1 C 12,2 C 9,4 C 93 % 1016,7 hPa 0,0 l/m 0 min 0 min 0 W/m 0,0 km/h (0 Bft) 95,74 %
06.07.2023 03:00 13,1 C 12,2 C 9,4 C 93 % 1016,7 hPa 0,0 l/m 0 min 0 min 0 W/m 6,4 km/h (2 Bft) 97,83 %
06.07.2023 03:02 13,1 C 12,2 C 9,4 C 93 % 1016,7 hPa 0,0 l/m 0 min 0 min 0 W/m 3,2 km/h (1 Bft) 93,62 %
06.07.2023 03:04 13,1 C 12,2 C 9,4 C 92 % 1016,7 hPa 0,0 l/m 0 min 0 min 0 W/m 3,2 km/h (1 Bft) 95,74 %
06.07.2023 03:06 13,1 C 12,2 C 9,4 C 92 % 1016,7 hPa 0,0 l/m 0 min 0 min 0 W/m 3,2 km/h (1 Bft) 95,00 %
06.07.2023 03:08 13,0 C 12,2 C 9,4 C 92 % 1016,6 hPa 0,0 l/m 0 min 0 min 0 W/m 3,2 km/h (1 Bft) 94,29 %
06.07.2023 03:10 13,0 C 12,2 C 9,4 C 92 % 1016,6 hPa 0,0 l/m 0 min 0 min 0 W/m 3,2 km/h (1 Bft) 95,74 %
06.07.2023 03:12 13,0 C 12,2 C 9,4 C 93 % 1016,6 hPa 0,0 l/m 0 min 0 min 0 W/m 3,2 km/h (1 Bft) 95,74 %
06.07.2023 03:14 12,9 C 12,2 C 9,4 C 93 % 1016,6 hPa 0,0 l/m 0 min 0 min 0 W/m 3,2 km/h (1 Bft) 95,65 %
06.07.2023 03:16 12,9 C 12,2 C 9,4 C 93 % 1016,6 hPa 0,0 l/m 0 min 0 min 0 W/m 3,2 km/h (1 Bft) 95,83 %
06.07.2023 03:18 12,9 C 12,2 C 9,4 C 93 % 1016,6 hPa 0,0 l/m 0 min 0 min 0 W/m 0,0 km/h (0 Bft) 95,74 %
06.07.2023 03:20 12,9 C 12,2 C 9,4 C 93 % 1016,6 hPa 0,0 l/m 0 min 0 min 0 W/m 0,0 km/h (0 Bft) 95,74 %
06.07.2023 03:22 12,9 C 12,2 C 9,4 C 93 % 1016,7 hPa 0,0 l/m 0 min 0 min 0 W/m 3,2 km/h (1 Bft) 93,62 %
06.07.2023 03:24 12,9 C 12,2 C 9,4 C 93 % 1016,7 hPa 0,0 l/m 0 min 0 min 0 W/m 3,2 km/h (1 Bft) 97,87 %
06.07.2023 03:26 12,9 C 12,2 C 9,4 C 93 % 1016,7 hPa 0,0 l/m 0 min 0 min 0 W/m 0,0 km/h (0 Bft) 97,92 %
06.07.2023 03:28 12,8 C 11,7 C 9,4 C 93 % 1016,7 hPa 0,0 l/m 0 min 0 min 0 W/m 3,2 km/h (1 Bft) 95,74 %
06.07.2023 03:30 12,8 C 12,2 C 9,4 C 93 % 1016,7 hPa 0,0 l/m 0 min 0 min 0 W/m 6,4 km/h (2 Bft) 100,00 %
06.07.2023 03:32 12,8 C 12,2 C 9,4 C 93 % 1016,7 hPa 0,0 l/m 0 min 0 min 0 W/m 9,7 km/h (2 Bft) 100,00 %
06.07.2023 03:34 12,8 C 12,2 C 9,4 C 93 % 1016,7 hPa 0,0 l/m 0 min 0 min 0 W/m 6,4 km/h (2 Bft) 100,00 %
06.07.2023 03:36 12,8 C 12,2 C 9,4 C 93 % 1016,7 hPa 0,0 l/m 0 min 0 min 0 W/m 9,7 km/h (2 Bft) 100,00 %
06.07.2023 03:38 12,8 C 12,2 C 9,4 C 93 % 1016,6 hPa 0,0 l/m 0 min 0 min 0 W/m 9,7 km/h (2 Bft) 97,87 %
06.07.2023 03:40 12,8 C 12,2 C 9,4 C 93 % 1016,7 hPa 0,0 l/m 0 min 0 min 0 W/m 9,7 km/h (2 Bft) 100,00 %
06.07.2023 03:42 12,8 C 12,2 C 9,4 C 93 % 1016,7 hPa 0,0 l/m 0 min 0 min 0 W/m 6,4 km/h (2 Bft) 100,00 %
06.07.2023 03:44 12,7 C 12,2 C 9,4 C 93 % 1016,7 hPa 0,0 l/m 0 min 0 min 0 W/m 9,7 km/h (2 Bft) 100,00 %
06.07.2023 03:46 12,8 C 12,2 C 9,4 C 93 % 1016,7 hPa 0,0 l/m 0 min 0 min 0 W/m 6,4 km/h (2 Bft) 100,00 %
06.07.2023 03:48 12,7 C 12,2 C 9,4 C 93 % 1016,7 hPa 0,0 l/m 0 min 0 min 0 W/m 6,4 km/h (2 Bft) 47,37 %
06.07.2023 03:50 12,7 C 12,2 C 9,4 C 93 % 1016,7 hPa 0,0 l/m 0 min 0 min 0 W/m 12,9 km/h (3 Bft) 100,00 %
06.07.2023 03:52 12,7 C 12,2 C 9,4 C 93 % 1016,7 hPa 0,0 l/m 0 min 0 min 0 W/m 6,4 km/h (2 Bft) 100,00 %
06.07.2023 03:54 12,7 C 12,2 C 9,4 C 93 % 1016,7 hPa 0,0 l/m 0 min 0 min 0 W/m 9,7 km/h (2 Bft) 100,00 %
06.07.2023 03:56 12,7 C 12,2 C 9,4 C 93 % 1016,7 hPa 0,0 l/m 0 min 0 min 0 W/m 12,9 km/h (3 Bft) 100,00 %
06.07.2023 03:58 12,7 C 12,2 C 9,4 C 93 % 1016,7 hPa 0,0 l/m 0 min 0 min 0 W/m 9,7 km/h (2 Bft) 97,87 %
06.07.2023 04:00 12,7 C 12,2 C 9,4 C 93 % 1016,7 hPa 0,0 l/m 0 min 0 min 0 W/m 9,7 km/h (2 Bft) 100,00 %
06.07.2023 04:02 12,7 C 12,2 C 9,4 C 93 % 1016,7 hPa 0,0 l/m 0 min 0 min 0 W/m 16,1 km/h (3 Bft) 93,62 %
06.07.2023 04:04 12,7 C 12,2 C 9,4 C 93 % 1016,7 hPa 0,0 l/m 0 min 0 min 0 W/m 12,9 km/h (3 Bft) 97,96 %
06.07.2023 04:06 12,7 C 12,2 C 9,4 C 93 % 1016,7 hPa 0,0 l/m 0 min 0 min 0 W/m 9,7 km/h (2 Bft) 100,00 %
06.07.2023 04:08 12,7 C 12,2 C 9,4 C 93 % 1016,7 hPa 0,0 l/m 0 min 0 min 0 W/m 9,7 km/h (2 Bft) 100,00 %
06.07.2023 04:10 12,7 C 12,2 C 9,4 C 93 % 1016,7 hPa 0,0 l/m 0 min 0 min 0 W/m 9,7 km/h (2 Bft) 100,00 %
06.07.2023 04:12 12,7 C 12,2 C 9,4 C 93 % 1016,7 hPa 0,0 l/m 0 min 0 min 0 W/m 6,4 km/h (2 Bft) 100,00 %
06.07.2023 04:14 12,6 C 12,2 C 9,4 C 93 % 1016,7 hPa 0,0 l/m 0 min 0 min 0 W/m 12,9 km/h (3 Bft) 100,00 %
06.07.2023 04:16 12,6 C 12,2 C 9,4 C 93 % 1016,8 hPa 0,0 l/m 0 min 0 min 0 W/m 12,9 km/h (3 Bft) 97,87 %
06.07.2023 04:18 12,6 C 12,2 C 9,4 C 93 % 1016,8 hPa 0,0 l/m 0 min 0 min 0 W/m 16,1 km/h (3 Bft) 100,00 %
06.07.2023 04:20 12,6 C 12,2 C 9,4 C 93 % 1016,7 hPa 0,0 l/m 0 min 0 min 0 W/m 9,7 km/h (2 Bft) 100,00 %
06.07.2023 04:22 12,6 C 12,2 C 9,4 C 93 % 1016,7 hPa 0,0 l/m 0 min 0 min 0 W/m 12,9 km/h (3 Bft) 100,00 %
06.07.2023 04:24 12,6 C 11,7 C 8,9 C 93 % 1016,7 hPa 0,0 l/m 0 min 0 min 0 W/m 3,2 km/h (1 Bft) 100,00 %
06.07.2023 04:26 12,6 C 11,7 C 8,9 C 92 % 1016,7 hPa 0,0 l/m 0 min 0 min 0 W/m 3,2 km/h (1 Bft) 100,00 %
06.07.2023 04:28 12,6 C 11,7 C 8,9 C 92 % 1016,7 hPa 0,0 l/m 0 min 0 min 0 W/m 12,9 km/h (3 Bft) 100,00 %
06.07.2023 04:30 12,6 C 11,7 C 8,9 C 92 % 1016,7 hPa 0,0 l/m 0 min 0 min 0 W/m 6,4 km/h (2 Bft) 100,00 %
06.07.2023 04:32 12,5 C 11,7 C 8,9 C 92 % 1016,7 hPa 0,0 l/m 0 min 0 min 0 W/m 3,2 km/h (1 Bft) 100,00 %
06.07.2023 04:34 12,5 C 11,7 C 8,9 C 92 % 1016,7 hPa 0,0 l/m 0 min 0 min 0 W/m 6,4 km/h (2 Bft) 97,83 %
06.07.2023 04:36 12,4 C 11,7 C 8,9 C 92 % 1016,8 hPa 0,0 l/m 0 min 0 min 0 W/m 6,4 km/h (2 Bft) 100,00 %
06.07.2023 04:38 12,4 C 11,7 C 8,9 C 92 % 1016,8 hPa 0,0 l/m 0 min 0 min 0 W/m 6,4 km/h (2 Bft) 97,87 %
06.07.2023 04:40 12,4 C 11,7 C 8,9 C 92 % 1016,7 hPa 0,0 l/m 0 min 0 min 0 W/m 9,7 km/h (2 Bft) 97,87 %
06.07.2023 04:42 12,4 C 11,7 C 8,9 C 92 % 1016,7 hPa 0,0 l/m 0 min 0 min 0 W/m 9,7 km/h (2 Bft) 97,87 %
06.07.2023 04:44 12,4 C 11,7 C 8,9 C 92 % 1016,7 hPa 0,0 l/m 0 min 0 min 0 W/m 9,7 km/h (2 Bft) 95,74 %
06.07.2023 04:46 12,4 C 11,7 C 8,9 C 92 % 1016,8 hPa 0,0 l/m 0 min 0 min 0 W/m 9,7 km/h (2 Bft) 97,87 %
06.07.2023 04:48 12,3 C 11,7 C 8,9 C 92 % 1016,7 hPa 0,0 l/m 0 min 0 min 0 W/m 6,4 km/h (2 Bft) 97,83 %
06.07.2023 04:50 12,3 C 11,7 C 8,9 C 92 % 1016,7 hPa 0,0 l/m 0 min 0 min 0 W/m 6,4 km/h (2 Bft) 97,87 %
06.07.2023 04:52 12,3 C 11,7 C 8,9 C 92 % 1016,8 hPa 0,0 l/m 0 min 0 min 0 W/m 9,7 km/h (2 Bft) 95,74 %
06.07.2023 04:54 12,3 C 11,7 C 8,9 C 92 % 1016,8 hPa 0,0 l/m 0 min 0 min 0 W/m 12,9 km/h (3 Bft) 97,87 %
06.07.2023 04:56 12,3 C 11,7 C 8,9 C 92 % 1016,8 hPa 0,0 l/m 0 min 0 min 0 W/m 16,1 km/h (3 Bft) 93,62 %
06.07.2023 04:58 12,3 C 11,7 C 8,9 C 92 % 1016,7 hPa 0,0 l/m 0 min 0 min 0 W/m 9,7 km/h (2 Bft) 93,62 %
06.07.2023 05:00 12,3 C 11,7 C 8,9 C 92 % 1016,7 hPa 0,0 l/m 0 min 0 min 0 W/m 6,4 km/h (2 Bft) 95,65 %
06.07.2023 05:02 12,3 C 11,7 C 8,9 C 92 % 1016,8 hPa 0,0 l/m 0 min 0 min 0 W/m 6,4 km/h (2 Bft) 93,62 %
06.07.2023 05:04 12,2 C 11,7 C 8,9 C 92 % 1016,8 hPa 0,0 l/m 0 min 0 min 0 W/m 9,7 km/h (2 Bft) 95,74 %
06.07.2023 05:06 12,2 C 11,7 C 8,9 C 92 % 1016,8 hPa 0,0 l/m 0 min 0 min 0 W/m 12,9 km/h (3 Bft) 94,92 %
06.07.2023 05:08 12,2 C 11,7 C 8,9 C 92 % 1016,8 hPa 0,0 l/m 0 min 0 min 0 W/m 16,1 km/h (3 Bft) 97,14 %
06.07.2023 05:10 12,2 C 11,7 C 8,9 C 92 % 1016,7 hPa 0,0 l/m 0 min 0 min 0 W/m 6,4 km/h (2 Bft) 97,87 %
06.07.2023 05:12 12,2 C 11,7 C 8,9 C 92 % 1016,7 hPa 0,0 l/m 0 min 0 min 0 W/m 12,9 km/h (3 Bft) 93,62 %
06.07.2023 05:14 12,2 C 11,7 C 8,9 C 92 % 1016,7 hPa 0,0 l/m 0 min 0 min 0 W/m 9,7 km/h (2 Bft) 91,30 %
06.07.2023 05:16 12,2 C 11,7 C 8,9 C 92 % 1016,7 hPa 0,0 l/m 0 min 0 min 0 W/m 9,7 km/h (2 Bft) 94,00 %
06.07.2023 05:18 12,2 C 11,7 C 8,9 C 92 % 1016,7 hPa 0,0 l/m 0 min 0 min 0 W/m 6,4 km/h (2 Bft) 93,62 %
06.07.2023 05:20 12,2 C 11,7 C 8,9 C 92 % 1016,8 hPa 0,0 l/m 0 min 0 min 0 W/m 9,7 km/h (2 Bft) 95,74 %
06.07.2023 05:22 12,2 C 11,7 C 8,9 C 92 % 1016,8 hPa 0,0 l/m 0 min 0 min 0 W/m 3,2 km/h (1 Bft) 95,74 %
06.07.2023 05:24 12,2 C 11,7 C 8,9 C 92 % 1016,8 hPa 0,0 l/m 0 min 0 min 0 W/m 12,9 km/h (3 Bft) 95,74 %
06.07.2023 05:26 12,1 C 11,7 C 8,9 C 92 % 1016,8 hPa 0,0 l/m 0 min 0 min 0 W/m 9,7 km/h (2 Bft) 95,74 %
06.07.2023 05:28 12,1 C 11,7 C 8,9 C 92 % 1016,8 hPa 0,0 l/m 0 min 0 min 0 W/m 9,7 km/h (2 Bft) 95,74 %
06.07.2023 05:30 12,1 C 11,7 C 8,9 C 92 % 1016,9 hPa 0,0 l/m 0 min 0 min 0 W/m 6,4 km/h (2 Bft) 93,48 %
06.07.2023 05:32 12,1 C 11,7 C 8,9 C 92 % 1016,9 hPa 0,0 l/m 0 min 0 min 2 W/m 9,7 km/h (2 Bft) 95,74 %
06.07.2023 05:34 12,1 C 11,7 C 8,9 C 92 % 1016,9 hPa 0,0 l/m 0 min 0 min 5 W/m 6,4 km/h (2 Bft) 95,74 %
06.07.2023 05:36 12,1 C 11,7 C 8,9 C 92 % 1016,9 hPa 0,0 l/m 0 min 0 min 5 W/m 9,7 km/h (2 Bft) 95,74 %
06.07.2023 05:38 12,1 C 11,7 C 8,9 C 92 % 1017,0 hPa 0,0 l/m 0 min 0 min 5 W/m 6,4 km/h (2 Bft) 95,74 %
06.07.2023 05:40 12,1 C 11,7 C 8,9 C 92 % 1017,0 hPa 0,0 l/m 0 min 0 min 6 W/m 6,4 km/h (2 Bft) 95,74 %
06.07.2023 05:42 12,1 C 11,7 C 8,9 C 92 % 1017,0 hPa 0,0 l/m 0 min 0 min 7 W/m 19,3 km/h (3 Bft) 91,49 %
06.07.2023 05:44 12,0 C 11,7 C 8,9 C 92 % 1017,0 hPa 0,0 l/m 0 min 0 min 7 W/m 9,7 km/h (2 Bft) 93,48 %
06.07.2023 05:46 12,0 C 11,7 C 8,9 C 92 % 1017,0 hPa 0,0 l/m 0 min 0 min 8 W/m 9,7 km/h (2 Bft) 95,74 %
06.07.2023 05:48 12,0 C 11,7 C 8,9 C 92 % 1017,0 hPa 0,0 l/m 0 min 0 min 9 W/m 6,4 km/h (2 Bft) 93,62 %
06.07.2023 05:50 12,0 C 11,7 C 8,9 C 92 % 1017,0 hPa 0,0 l/m 0 min 0 min 9 W/m 6,4 km/h (2 Bft) 95,74 %
06.07.2023 05:52 12,0 C 11,7 C 8,9 C 92 % 1017,0 hPa 0,0 l/m 0 min 0 min 9 W/m 16,1 km/h (3 Bft) 95,74 %
06.07.2023 05:54 12,0 C 11,7 C 8,9 C 92 % 1017,0 hPa 0,0 l/m 0 min 0 min 11 W/m 6,4 km/h (2 Bft) 97,87 %
06.07.2023 05:56 12,0 C 11,7 C 8,9 C 92 % 1017,0 hPa 0,0 l/m 0 min 0 min 11 W/m 3,2 km/h (1 Bft) 100,00 %
06.07.2023 05:58 12,0 C 11,7 C 8,9 C 92 % 1017,1 hPa 0,0 l/m 0 min 0 min 11 W/m 9,7 km/h (2 Bft) 97,83 %
06.07.2023 06:00 12,0 C 11,7 C 8,9 C 92 % 1017,0 hPa 0,0 l/m 0 min 0 min 12 W/m 3,2 km/h (1 Bft) 97,87 %
06.07.2023 06:02 12,0 C 11,7 C 8,9 C 92 % 1017,1 hPa 0,0 l/m 0 min 0 min 12 W/m 6,4 km/h (2 Bft) 97,87 %
06.07.2023 06:04 12,0 C 11,7 C 8,9 C 92 % 1017,1 hPa 0,0 l/m 0 min 0 min 12 W/m 3,2 km/h (1 Bft) 97,96 %
06.07.2023 06:08 12,0 C 11,7 C 8,9 C 92 % 1017,1 hPa 0,0 l/m 0 min 0 min 14 W/m 6,4 km/h (2 Bft) 100,00 %
06.07.2023 06:10 12,0 C 11,7 C 8,9 C 91 % 1017,1 hPa 0,0 l/m 0 min 0 min 14 W/m 3,2 km/h (1 Bft) 97,14 %
06.07.2023 06:12 12,0 C 11,7 C 8,9 C 91 % 1017,1 hPa 0,0 l/m 0 min 0 min 16 W/m 3,2 km/h (1 Bft) 95,74 %
06.07.2023 06:14 12,0 C 11,7 C 8,9 C 91 % 1017,1 hPa 0,0 l/m 0 min 0 min 16 W/m 9,7 km/h (2 Bft) 100,00 %
06.07.2023 06:16 12,0 C 11,7 C 8,9 C 91 % 1017,1 hPa 0,0 l/m 0 min 0 min 18 W/m 6,4 km/h (2 Bft) 97,87 %
06.07.2023 06:18 12,0 C 11,7 C 8,9 C 91 % 1017,1 hPa 0,0 l/m 0 min 0 min 19 W/m 3,2 km/h (1 Bft) 100,00 %
06.07.2023 06:20 12,0 C 11,7 C 8,9 C 91 % 1017,2 hPa 0,0 l/m 0 min 0 min 19 W/m 9,7 km/h (2 Bft) 98,31 %
06.07.2023 06:22 12,0 C 11,7 C 8,9 C 91 % 1017,2 hPa 0,0 l/m 0 min 0 min 19 W/m 9,7 km/h (2 Bft) 97,14 %
06.07.2023 06:24 12,1 C 11,7 C 8,9 C 91 % 1017,2 hPa 0,0 l/m 0 min 0 min 21 W/m 6,4 km/h (2 Bft) 97,87 %
06.07.2023 06:26 12,1 C 11,7 C 8,9 C 91 % 1017,1 hPa 0,0 l/m 0 min 0 min 23 W/m 3,2 km/h (1 Bft) 93,48 %
06.07.2023 06:28 12,1 C 11,7 C 8,9 C 91 % 1017,2 hPa 0,0 l/m 0 min 0 min 25 W/m 3,2 km/h (1 Bft) 97,87 %
06.07.2023 06:30 12,1 C 11,7 C 8,9 C 91 % 1017,2 hPa 0,0 l/m 0 min 0 min 28 W/m 6,4 km/h (2 Bft) 97,87 %
06.07.2023 06:32 12,1 C 11,7 C 8,9 C 91 % 1017,2 hPa 0,0 l/m 0 min 0 min 31 W/m 9,7 km/h (2 Bft) 97,87 %
06.07.2023 06:34 12,1 C 12,2 C 8,9 C 91 % 1017,2 hPa 0,0 l/m 0 min 0 min 34 W/m 6,4 km/h (2 Bft) 97,87 %
06.07.2023 06:36 12,2 C 12,2 C 8,9 C 91 % 1017,2 hPa 0,0 l/m 0 min 0 min 37 W/m 6,4 km/h (2 Bft) 97,87 %
06.07.2023 06:38 12,2 C 12,2 C 8,9 C 91 % 1017,2 hPa 0,0 l/m 0 min 0 min 40 W/m 3,2 km/h (1 Bft) 97,87 %
06.07.2023 06:40 12,3 C 12,2 C 8,9 C 91 % 1017,2 hPa 0,0 l/m 0 min 0 min 40 W/m 6,4 km/h (2 Bft) 97,83 %
06.07.2023 06:42 12,3 C 12,2 C 9,4 C 91 % 1017,3 hPa 0,0 l/m 0 min 0 min 40 W/m 6,4 km/h (2 Bft) 97,87 %
06.07.2023 06:44 12,3 C 12,2 C 9,4 C 91 % 1017,3 hPa 0,0 l/m 0 min 0 min 39 W/m 9,7 km/h (2 Bft) 97,87 %
06.07.2023 06:46 12,4 C 12,2 C 9,4 C 91 % 1017,2 hPa 0,0 l/m 0 min 0 min 37 W/m 6,4 km/h (2 Bft) 95,74 %
06.07.2023 06:48 12,4 C 12,2 C 9,4 C 91 % 1017,3 hPa 0,0 l/m 0 min 0 min 37 W/m 3,2 km/h (1 Bft) 97,87 %
06.07.2023 06:50 12,5 C 12,2 C 9,4 C 91 % 1017,3 hPa 0,0 l/m 0 min 0 min 38 W/m 6,4 km/h (2 Bft) 100,00 %
06.07.2023 06:52 12,5 C 12,2 C 9,4 C 91 % 1017,3 hPa 0,0 l/m 0 min 0 min 39 W/m 3,2 km/h (1 Bft) 100,00 %
06.07.2023 06:54 12,6 C 12,2 C 9,4 C 91 % 1017,3 hPa 0,0 l/m 0 min 0 min 37 W/m 6,4 km/h (2 Bft) 100,00 %
06.07.2023 06:56 12,6 C 12,2 C 9,4 C 90 % 1017,3 hPa 0,0 l/m 0 min 0 min 35 W/m 3,2 km/h (1 Bft) 100,00 %
06.07.2023 06:58 12,6 C 12,2 C 9,4 C 90 % 1017,3 hPa 0,0 l/m 0 min 0 min 35 W/m 6,4 km/h (2 Bft) 100,00 %
06.07.2023 07:00 12,7 C 12,2 C 9,4 C 90 % 1017,3 hPa 0,0 l/m 0 min 0 min 37 W/m 6,4 km/h (2 Bft) 97,87 %
06.07.2023 07:02 12,7 C 12,2 C 9,4 C 90 % 1017,4 hPa 0,0 l/m 0 min 0 min 39 W/m 3,2 km/h (1 Bft) 100,00 %
06.07.2023 07:04 12,7 C 12,2 C 9,4 C 90 % 1017,4 hPa 0,0 l/m 0 min 0 min 39 W/m 12,9 km/h (3 Bft) 100,00 %
06.07.2023 07:06 12,7 C 12,2 C 9,4 C 90 % 1017,4 hPa 0,0 l/m 0 min 0 min 37 W/m 3,2 km/h (1 Bft) 100,00 %
06.07.2023 07:08 12,7 C 12,8 C 9,4 C 90 % 1017,4 hPa 0,0 l/m 0 min 0 min 35 W/m 6,4 km/h (2 Bft) 100,00 %
06.07.2023 07:10 12,8 C 12,8 C 9,4 C 90 % 1017,4 hPa 0,0 l/m 0 min 0 min 34 W/m 9,7 km/h (2 Bft) 100,00 %
06.07.2023 07:12 12,8 C 12,8 C 9,4 C 89 % 1017,4 hPa 0,0 l/m 0 min 0 min 33 W/m 9,7 km/h (2 Bft) 100,00 %
06.07.2023 07:14 12,8 C 12,8 C 9,4 C 89 % 1017,4 hPa 0,0 l/m 0 min 0 min 34 W/m 12,9 km/h (3 Bft) 95,74 %
06.07.2023 07:16 12,8 C 12,8 C 9,4 C 89 % 1017,4 hPa 0,0 l/m 0 min 0 min 34 W/m 9,7 km/h (2 Bft) 100,00 %
06.07.2023 07:18 12,8 C 12,8 C 9,4 C 89 % 1017,4 hPa 0,0 l/m 0 min 0 min 36 W/m 6,4 km/h (2 Bft) 97,83 %
06.07.2023 07:20 12,8 C 12,8 C 9,4 C 89 % 1017,4 hPa 0,0 l/m 0 min 0 min 40 W/m 9,7 km/h (2 Bft) 97,87 %
06.07.2023 07:22 12,9 C 12,8 C 9,4 C 89 % 1017,4 hPa 0,0 l/m 0 min 0 min 45 W/m 9,7 km/h (2 Bft) 100,00 %
06.07.2023 07:24 12,9 C 12,8 C 9,4 C 89 % 1017,4 hPa 0,0 l/m 0 min 0 min 48 W/m 6,4 km/h (2 Bft) 100,00 %
06.07.2023 07:25 12,9 C 12,8 C 9,4 C 89 % 1017,4 hPa 0,0 l/m 0 min 0 min 50 W/m 9,7 km/h (2 Bft) 100,00 %
06.07.2023 07:28 13,0 C 12,8 C 9,4 C 89 % 1017,4 hPa 0,0 l/m 0 min 0 min 66 W/m 6,4 km/h (2 Bft) 97,00 %
06.07.2023 07:30 13,1 C 12,8 C 10,0 C 89 % 1017,5 hPa 0,0 l/m 0 min 0 min 73 W/m 6,4 km/h (2 Bft) 100,00 %
06.07.2023 07:32 13,1 C 13,3 C 10,0 C 89 % 1017,5 hPa 0,0 l/m 0 min 0 min 82 W/m 12,9 km/h (3 Bft) 100,00 %
06.07.2023 07:34 13,2 C 13,3 C 10,0 C 89 % 1017,4 hPa 0,0 l/m 0 min 0 min 87 W/m 3,2 km/h (1 Bft) 100,00 %
06.07.2023 07:36 13,3 C 13,3 C 10,0 C 89 % 1017,5 hPa 0,0 l/m 0 min 0 min 82 W/m 6,4 km/h (2 Bft) 100,00 %
06.07.2023 07:38 13,3 C 13,9 C 10,6 C 89 % 1017,5 hPa 0,0 l/m 0 min 0 min 74 W/m 6,4 km/h (2 Bft) 95,74 %
06.07.2023 07:40 13,4 C 13,9 C 10,6 C 89 % 1017,5 hPa 0,0 l/m 0 min 0 min 68 W/m 6,4 km/h (2 Bft) 100,00 %
06.07.2023 07:42 13,5 C 13,9 C 10,6 C 89 % 1017,5 hPa 0,0 l/m 0 min 0 min 66 W/m 12,9 km/h (3 Bft) 100,00 %
06.07.2023 07:44 13,6 C 13,9 C 10,6 C 89 % 1017,5 hPa 0,0 l/m 0 min 0 min 70 W/m 6,4 km/h (2 Bft) 100,00 %
06.07.2023 07:46 13,6 C 13,9 C 10,6 C 88 % 1017,5 hPa 0,0 l/m 0 min 0 min 141 W/m 12,9 km/h (3 Bft) 100,00 %
06.07.2023 07:48 13,7 C 13,9 C 10,6 C 88 % 1017,6 hPa 0,0 l/m 0 min 0 min 110 W/m 22,5 km/h (4 Bft) 97,87 %
06.07.2023 07:50 13,7 C 13,9 C 10,6 C 88 % 1017,5 hPa 0,0 l/m 2 min 0 min 209 W/m 12,9 km/h (3 Bft) 100,00 %
06.07.2023 07:52 13,8 C 13,9 C 10,6 C 88 % 1017,5 hPa 0,0 l/m 2 min 0 min 250 W/m 9,7 km/h (2 Bft) 100,00 %
06.07.2023 07:54 13,9 C 13,9 C 10,6 C 88 % 1017,5 hPa 0,0 l/m 2 min 0 min 249 W/m 9,7 km/h (2 Bft) 97,87 %
06.07.2023 07:56 13,9 C 13,9 C 10,6 C 88 % 1017,5 hPa 0,0 l/m 0 min 0 min 135 W/m 6,4 km/h (2 Bft) 95,65 %
06.07.2023 07:58 14,0 C 13,9 C 10,6 C 88 % 1017,6 hPa 0,0 l/m 0 min 0 min 132 W/m 9,7 km/h (2 Bft) 97,78 %
06.07.2023 08:00 14,1 C 13,9 C 10,6 C 88 % 1017,6 hPa 0,0 l/m 2 min 0 min 228 W/m 12,9 km/h (3 Bft) 95,74 %
06.07.2023 08:02 14,1 C 13,9 C 10,6 C 87 % 1017,6 hPa 0,0 l/m 2 min 0 min 219 W/m 9,7 km/h (2 Bft) 97,83 %
06.07.2023 08:04 14,2 C 13,9 C 10,6 C 87 % 1017,6 hPa 0,0 l/m 2 min 0 min 284 W/m 12,9 km/h (3 Bft) 97,62 %
06.07.2023 08:06 14,2 C 14,4 C 10,6 C 87 % 1017,6 hPa 0,0 l/m 2 min 0 min 298 W/m 9,7 km/h (2 Bft) 93,85 %
06.07.2023 08:08 14,3 C 15,0 C 10,6 C 87 % 1017,6 hPa 0,0 l/m 2 min 0 min 303 W/m 12,9 km/h (3 Bft) 91,43 %
06.07.2023 08:10 14,3 C 16,1 C 10,6 C 87 % 1017,7 hPa 0,0 l/m 2 min 0 min 312 W/m 16,1 km/h (3 Bft) 95,74 %
06.07.2023 08:12 14,3 C 16,7 C 10,6 C 87 % 1017,7 hPa 0,0 l/m 2 min 0 min 317 W/m 12,9 km/h (3 Bft) 93,62 %
06.07.2023 08:14 14,4 C 16,7 C 10,6 C 86 % 1017,7 hPa 0,0 l/m 2 min 0 min 292 W/m 6,4 km/h (2 Bft) 93,62 %
06.07.2023 08:16 14,5 C 17,2 C 10,6 C 86 % 1017,7 hPa 0,0 l/m 2 min 0 min 324 W/m 12,9 km/h (3 Bft) 91,30 %
06.07.2023 08:18 14,6 C 17,8 C 11,1 C 86 % 1017,6 hPa 0,0 l/m 2 min 0 min 339 W/m 12,9 km/h (3 Bft) 93,62 %
06.07.2023 08:20 14,7 C 18,3 C 11,1 C 86 % 1017,8 hPa 0,0 l/m 2 min 0 min 346 W/m 12,9 km/h (3 Bft) 93,62 %
06.07.2023 08:22 14,8 C 18,3 C 11,1 C 86 % 1017,8 hPa 0,0 l/m 2 min 0 min 354 W/m 12,9 km/h (3 Bft) 93,75 %
06.07.2023 08:24 14,8 C 18,9 C 11,1 C 85 % 1017,8 hPa 0,0 l/m 2 min 0 min 358 W/m 6,4 km/h (2 Bft) 89,36 %
06.07.2023 08:26 14,9 C 18,9 C 11,7 C 85 % 1017,9 hPa 0,0 l/m 2 min 0 min 365 W/m 12,9 km/h (3 Bft) 93,62 %
06.07.2023 08:28 15,0 C 18,3 C 11,7 C 85 % 1017,8 hPa 0,0 l/m 2 min 0 min 362 W/m 16,1 km/h (3 Bft) 93,48 %
06.07.2023 08:30 15,1 C 18,3 C 12,2 C 85 % 1017,9 hPa 0,0 l/m 2 min 0 min 364 W/m 12,9 km/h (3 Bft) 89,36 %
06.07.2023 08:32 15,2 C 18,3 C 12,2 C 85 % 1017,9 hPa 0,0 l/m 2 min 0 min 376 W/m 6,4 km/h (2 Bft) 93,62 %
06.07.2023 08:34 15,2 C 18,9 C 12,8 C 85 % 1018,0 hPa 0,0 l/m 2 min 0 min 385 W/m 12,9 km/h (3 Bft) 93,62 %
06.07.2023 08:36 15,3 C 19,4 C 12,8 C 85 % 1018,1 hPa 0,0 l/m 2 min 0 min 390 W/m 6,4 km/h (2 Bft) 93,62 %
06.07.2023 08:38 15,4 C 20,0 C 13,3 C 85 % 1018,0 hPa 0,0 l/m 2 min 0 min 400 W/m 6,4 km/h (2 Bft) 93,62 %
06.07.2023 08:40 15,5 C 20,0 C 13,3 C 84 % 1018,0 hPa 0,0 l/m 2 min 0 min 383 W/m 12,9 km/h (3 Bft) 91,49 %
06.07.2023 08:42 15,7 C 20,6 C 13,9 C 84 % 1018,1 hPa 0,0 l/m 2 min 0 min 407 W/m 6,4 km/h (2 Bft) 93,48 %
06.07.2023 08:44 15,8 C 21,1 C 13,9 C 84 % 1018,1 hPa 0,0 l/m 2 min 0 min 415 W/m 9,7 km/h (2 Bft) 93,62 %
06.07.2023 08:46 15,8 C 21,7 C 14,4 C 84 % 1018,0 hPa 0,0 l/m 2 min 0 min 421 W/m 12,9 km/h (3 Bft) 95,74 %
06.07.2023 08:48 15,9 C 21,1 C 14,4 C 84 % 1018,1 hPa 0,0 l/m 2 min 0 min 429 W/m 19,3 km/h (3 Bft) 95,74 %
06.07.2023 08:50 15,8 C 21,1 C 15,0 C 83 % 1018,1 hPa 0,0 l/m 2 min 0 min 364 W/m 16,1 km/h (3 Bft) 95,74 %
06.07.2023 08:52 15,9 C 21,1 C 15,0 C 84 % 1018,2 hPa 0,0 l/m 2 min 0 min 433 W/m 6,4 km/h (2 Bft) 93,62 %
06.07.2023 08:54 16,2 C 21,1 C 15,0 C 84 % 1018,2 hPa 0,0 l/m 2 min 0 min 476 W/m 6,4 km/h (2 Bft) 93,62 %
06.07.2023 08:56 16,3 C 21,7 C 15,0 C 83 % 1018,2 hPa 0,0 l/m 2 min 0 min 505 W/m 3,2 km/h (1 Bft) 95,65 %
06.07.2023 08:58 16,4 C 20,0 C 15,0 C 83 % 1018,2 hPa 0,0 l/m 2 min 0 min 305 W/m 12,9 km/h (3 Bft) 97,87 %
06.07.2023 09:00 16,2 C 20,0 C 15,0 C 82 % 1018,2 hPa 0,0 l/m 0 min 0 min 182 W/m 16,1 km/h (3 Bft) 95,74 %
06.07.2023 09:02 16,2 C 21,1 C 15,0 C 83 % 1018,2 hPa 0,0 l/m 2 min 0 min 506 W/m 6,4 km/h (2 Bft) 97,87 %
06.07.2023 09:04 16,4 C 21,1 C 15,0 C 83 % 1018,2 hPa 0,0 l/m 2 min 0 min 516 W/m 9,7 km/h (2 Bft) 97,87 %
06.07.2023 09:06 16,5 C 21,7 C 15,0 C 82 % 1018,2 hPa 0,0 l/m 2 min 0 min 502 W/m 12,9 km/h (3 Bft) 97,87 %
06.07.2023 09:08 16,6 C 20,6 C 15,0 C 82 % 1018,2 hPa 0,0 l/m 2 min 0 min 455 W/m 6,4 km/h (2 Bft) 97,83 %
06.07.2023 09:10 16,6 C 20,6 C 15,0 C 82 % 1018,2 hPa 0,0 l/m 0 min 0 min 235 W/m 9,7 km/h (2 Bft) 97,87 %
06.07.2023 09:12 16,4 C 20,0 C 15,0 C 82 % 1018,2 hPa 0,0 l/m 2 min 0 min 289 W/m 12,9 km/h (3 Bft) 97,87 %
06.07.2023 09:14 16,2 C 20,0 C 15,0 C 83 % 1018,2 hPa 0,0 l/m 2 min 0 min 524 W/m 12,9 km/h (3 Bft) 100,00 %
06.07.2023 09:16 16,3 C 21,1 C 15,0 C 83 % 1018,2 hPa 0,0 l/m 2 min 0 min 522 W/m 12,9 km/h (3 Bft) 97,87 %
06.07.2023 09:18 16,3 C 21,1 C 15,0 C 83 % 1018,2 hPa 0,0 l/m 2 min 0 min 525 W/m 6,4 km/h (2 Bft) 95,74 %
06.07.2023 09:20 16,4 C 21,1 C 15,6 C 83 % 1018,2 hPa 0,0 l/m 2 min 0 min 558 W/m 12,9 km/h (3 Bft) 97,83 %
06.07.2023 09:22 16,5 C 21,1 C 15,6 C 83 % 1018,2 hPa 0,0 l/m 2 min 0 min 564 W/m 9,7 km/h (2 Bft) 97,87 %
06.07.2023 09:24 16,5 C 21,1 C 15,6 C 83 % 1018,2 hPa 0,0 l/m 2 min 0 min 544 W/m 9,7 km/h (2 Bft) 95,74 %
06.07.2023 09:26 16,6 C 21,7 C 16,1 C 83 % 1018,2 hPa 0,0 l/m 2 min 0 min 546 W/m 12,9 km/h (3 Bft) 95,74 %
06.07.2023 09:28 16,8 C 21,7 C 16,1 C 82 % 1018,2 hPa 0,0 l/m 2 min 0 min 555 W/m 16,1 km/h (3 Bft) 97,92 %
06.07.2023 09:30 16,7 C 22,2 C 16,7 C 82 % 1018,2 hPa 0,0 l/m 2 min 0 min 555 W/m 9,7 km/h (2 Bft) 95,74 %
06.07.2023 09:32 16,7 C 22,2 C 16,7 C 82 % 1018,3 hPa 0,0 l/m 2 min 0 min 563 W/m 6,4 km/h (2 Bft) 95,74 %
06.07.2023 09:34 16,9 C 22,2 C 17,2 C 82 % 1018,2 hPa 0,0 l/m 2 min 0 min 574 W/m 6,4 km/h (2 Bft) 93,48 %
06.07.2023 09:36 17,2 C 22,8 C 17,2 C 82 % 1018,2 hPa 0,0 l/m 2 min 0 min 581 W/m 3,2 km/h (1 Bft) 97,87 %
06.07.2023 09:38 17,4 C 22,8 C 17,2 C 81 % 1018,2 hPa 0,0 l/m 2 min 0 min 596 W/m 9,7 km/h (2 Bft) 97,87 %
06.07.2023 09:40 17,4 C 22,2 C 17,8 C 81 % 1018,2 hPa 0,0 l/m 2 min 0 min 613 W/m 12,9 km/h (3 Bft) 100,00 %
06.07.2023 09:42 17,4 C 22,2 C 17,2 C 81 % 1018,2 hPa 0,0 l/m 2 min 0 min 613 W/m 12,9 km/h (3 Bft) 100,00 %
06.07.2023 09:44 17,3 C 20,0 C 16,1 C 80 % 1018,3 hPa 0,0 l/m 2 min 0 min 613 W/m 9,7 km/h (2 Bft) 100,00 %
06.07.2023 09:46 17,2 C 19,4 C 16,1 C 81 % 1018,3 hPa 0,0 l/m 0 min 0 min 180 W/m 12,9 km/h (3 Bft) 100,00 %
06.07.2023 09:48 17,2 C 20,6 C 16,7 C 81 % 1018,3 hPa 0,0 l/m 2 min 0 min 622 W/m 9,7 km/h (2 Bft) 100,00 %
06.07.2023 09:50 17,3 C 21,1 C 17,2 C 81 % 1018,2 hPa 0,0 l/m 2 min 0 min 614 W/m 12,9 km/h (3 Bft) 100,00 %
06.07.2023 09:52 17,6 C 21,7 C 17,8 C 81 % 1018,3 hPa 0,0 l/m 2 min 0 min 615 W/m 9,7 km/h (2 Bft) 100,00 %
06.07.2023 09:54 17,7 C 22,8 C 18,3 C 80 % 1018,3 hPa 0,0 l/m 2 min 0 min 623 W/m 12,9 km/h (3 Bft) 100,00 %
06.07.2023 09:56 17,8 C 22,2 C 18,3 C 79 % 1018,3 hPa 0,0 l/m 2 min 0 min 589 W/m 9,7 km/h (2 Bft) 100,00 %
06.07.2023 09:58 17,8 C 22,8 C 18,3 C 79 % 1018,3 hPa 0,0 l/m 2 min 0 min 605 W/m 12,9 km/h (3 Bft) 100,00 %
06.07.2023 10:00 17,8 C 22,2 C 18,3 C 79 % 1018,3 hPa 0,0 l/m 2 min 0 min 647 W/m 12,9 km/h (3 Bft) 100,00 %
06.07.2023 10:02 17,8 C 22,2 C 18,3 C 79 % 1018,4 hPa 0,0 l/m 2 min 0 min 640 W/m 6,4 km/h (2 Bft) 100,00 %
06.07.2023 10:04 18,0 C 21,7 C 18,3 C 79 % 1018,3 hPa 0,0 l/m 2 min 0 min 663 W/m 9,7 km/h (2 Bft) 100,00 %
06.07.2023 10:06 18,1 C 21,7 C 18,3 C 79 % 1018,3 hPa 0,0 l/m 2 min 0 min 675 W/m 12,9 km/h (3 Bft) 100,00 %
06.07.2023 10:08 18,0 C 21,1 C 17,8 C 78 % 1018,4 hPa 0,0 l/m 2 min 0 min 375 W/m 16,1 km/h (3 Bft) 100,00 %
06.07.2023 10:10 17,8 C 20,6 C 17,8 C 78 % 1018,3 hPa 0,0 l/m 0 min 0 min 274 W/m 6,4 km/h (2 Bft) 100,00 %
06.07.2023 10:12 18,1 C 21,7 C 18,3 C 78 % 1018,4 hPa 0,0 l/m 2 min 0 min 687 W/m 6,4 km/h (2 Bft) 100,00 %
06.07.2023 10:14 18,2 C 21,7 C 18,3 C 78 % 1018,3 hPa 0,0 l/m 2 min 0 min 657 W/m 12,9 km/h (3 Bft) 100,00 %
06.07.2023 10:16 18,0 C 21,1 C 18,3 C 77 % 1018,4 hPa 0,0 l/m 0 min 0 min 121 W/m 12,9 km/h (3 Bft) 95,74 %
06.07.2023 10:18 18,1 C 21,7 C 18,9 C 77 % 1018,4 hPa 0,0 l/m 2 min 0 min 576 W/m 12,9 km/h (3 Bft) 100,00 %
06.07.2023 10:20 18,2 C 21,1 C 18,3 C 77 % 1018,4 hPa 0,0 l/m 2 min 0 min 717 W/m 12,9 km/h (3 Bft) 95,74 %
06.07.2023 10:22 18,3 C 21,1 C 18,3 C 77 % 1018,4 hPa 0,0 l/m 2 min 0 min 609 W/m 12,9 km/h (3 Bft) 97,87 %
06.07.2023 10:24 18,2 C 20,0 C 17,2 C 76 % 1018,5 hPa 0,0 l/m 0 min 0 min 151 W/m 9,7 km/h (2 Bft) 93,62 %
06.07.2023 10:26 18,0 C 19,4 C 16,7 C 76 % 1018,5 hPa 0,0 l/m 0 min 0 min 112 W/m 12,9 km/h (3 Bft) 95,74 %
06.07.2023 10:28 17,9 C 18,9 C 16,7 C 77 % 1018,4 hPa 0,0 l/m 0 min 0 min 109 W/m 9,7 km/h (2 Bft) 97,83 %
06.07.2023 10:30 18,0 C 18,9 C 16,7 C 77 % 1018,5 hPa 0,0 l/m 2 min 0 min 642 W/m 6,4 km/h (2 Bft) 93,62 %
06.07.2023 10:32 17,9 C 18,9 C 16,1 C 77 % 1018,5 hPa 0,0 l/m 2 min 0 min 738 W/m 12,9 km/h (3 Bft) 95,74 %
06.07.2023 10:34 17,9 C 18,9 C 16,1 C 78 % 1018,5 hPa 0,0 l/m 0 min 0 min 260 W/m 16,1 km/h (3 Bft) 95,74 %
06.07.2023 10:36 17,9 C 18,9 C 16,7 C 77 % 1018,5 hPa 0,0 l/m 0 min 0 min 260 W/m 16,1 km/h (3 Bft) 93,62 %
06.07.2023 10:38 18,0 C 18,9 C 17,2 C 77 % 1018,5 hPa 0,0 l/m 0 min 0 min 260 W/m 16,1 km/h (3 Bft) 95,74 %
06.07.2023 10:40 18,1 C 19,4 C 17,8 C 77 % 1018,5 hPa 0,0 l/m 0 min 0 min 260 W/m 6,4 km/h (2 Bft) 95,65 %
06.07.2023 10:42 18,3 C 19,4 C 18,3 C 77 % 1018,5 hPa 0,0 l/m 0 min 0 min 260 W/m 9,7 km/h (2 Bft) 93,62 %
06.07.2023 10:44 18,6 C 20,0 C 18,3 C 77 % 1018,5 hPa 0,0 l/m 0 min 0 min 260 W/m 12,9 km/h (3 Bft) 95,74 %
06.07.2023 10:46 18,7 C 20,0 C 19,4 C 75 % 1018,5 hPa 0,0 l/m 2 min 0 min 583 W/m 16,1 km/h (3 Bft) 95,74 %
06.07.2023 10:48 18,8 C 20,0 C 19,4 C 74 % 1018,5 hPa 0,0 l/m 2 min 0 min 789 W/m 12,9 km/h (3 Bft) 95,74 %
06.07.2023 10:50 18,9 C 20,6 C 20,0 C 73 % 1018,5 hPa 0,0 l/m 2 min 0 min 783 W/m 25,7 km/h (4 Bft) 95,74 %
06.07.2023 10:52 18,9 C 20,6 C 20,0 C 73 % 1018,6 hPa 0,0 l/m 2 min 0 min 775 W/m 6,4 km/h (2 Bft) 93,48 %
06.07.2023 10:54 18,9 C 20,6 C 20,0 C 74 % 1018,6 hPa 0,0 l/m 2 min 0 min 775 W/m 12,9 km/h (3 Bft) 91,49 %
06.07.2023 10:56 18,9 C 20,6 C 20,0 C 74 % 1018,5 hPa 0,0 l/m 2 min 0 min 793 W/m 6,4 km/h (2 Bft) 97,87 %
06.07.2023 10:58 18,9 C 21,1 C 19,4 C 74 % 1018,5 hPa 0,0 l/m 2 min 0 min 809 W/m 9,7 km/h (2 Bft) 91,49 %
06.07.2023 11:00 19,3 C 21,1 C 19,4 C 73 % 1018,5 hPa 0,0 l/m 2 min 0 min 810 W/m 12,9 km/h (3 Bft) 97,87 %
06.07.2023 11:02 19,4 C 22,2 C 18,9 C 72 % 1018,5 hPa 0,0 l/m 2 min 0 min 830 W/m 12,9 km/h (3 Bft) 95,74 %
06.07.2023 11:04 19,4 C 21,7 C 18,9 C 72 % 1018,5 hPa 0,0 l/m 2 min 0 min 682 W/m 19,3 km/h (3 Bft) 95,12 %
06.07.2023 11:06 19,4 C 21,7 C 18,3 C 72 % 1018,6 hPa 0,0 l/m 0 min 0 min 209 W/m 12,9 km/h (3 Bft) 97,87 %
06.07.2023 11:08 19,3 C 20,6 C 17,2 C 71 % 1018,6 hPa 0,0 l/m 0 min 0 min 209 W/m 12,9 km/h (3 Bft) 97,87 %
06.07.2023 11:10 19,1 C 20,6 C 17,2 C 72 % 1018,6 hPa 0,0 l/m 2 min 0 min 399 W/m 12,9 km/h (3 Bft) 100,00 %
06.07.2023 11:12 19,1 C 21,1 C 17,2 C 73 % 1018,6 hPa 0,0 l/m 2 min 0 min 858 W/m 16,1 km/h (3 Bft) 100,00 %
06.07.2023 11:14 19,3 C 21,7 C 17,8 C 72 % 1018,6 hPa 0,0 l/m 2 min 0 min 877 W/m 16,1 km/h (3 Bft) 100,00 %
06.07.2023 11:16 19,4 C 22,2 C 17,8 C 72 % 1018,7 hPa 0,0 l/m 2 min 0 min 880 W/m 16,1 km/h (3 Bft) 100,00 %
06.07.2023 11:18 19,7 C 22,8 C 18,3 C 70 % 1018,7 hPa 0,0 l/m 2 min 0 min 891 W/m 12,9 km/h (3 Bft) 97,87 %
06.07.2023 11:20 20,1 C 23,3 C 18,9 C 69 % 1018,7 hPa 0,0 l/m 2 min 0 min 893 W/m 19,3 km/h (3 Bft) 100,00 %
06.07.2023 11:22 20,1 C 23,3 C 19,4 C 68 % 1018,6 hPa 0,0 l/m 2 min 0 min 853 W/m 22,5 km/h (4 Bft) 97,87 %
06.07.2023 11:24 20,1 C 23,9 C 19,4 C 68 % 1018,6 hPa 0,0 l/m 2 min 0 min 835 W/m 6,4 km/h (2 Bft) 100,00 %
06.07.2023 11:26 20,2 C 23,3 C 20,0 C 68 % 1018,6 hPa 0,0 l/m 2 min 0 min 836 W/m 16,1 km/h (3 Bft) 100,00 %
06.07.2023 11:28 20,2 C 23,3 C 20,0 C 68 % 1018,6 hPa 0,0 l/m 2 min 0 min 900 W/m 12,9 km/h (3 Bft) 100,00 %
06.07.2023 11:30 20,3 C 23,9 C 20,6 C 67 % 1018,6 hPa 0,0 l/m 2 min 0 min 898 W/m 12,9 km/h (3 Bft) 100,00 %
06.07.2023 11:32 20,4 C 23,9 C 21,1 C 66 % 1018,6 hPa 0,0 l/m 2 min 0 min 896 W/m 16,1 km/h (3 Bft) 100,00 %
06.07.2023 11:34 20,2 C 23,9 C 21,7 C 67 % 1018,5 hPa 0,0 l/m 2 min 0 min 871 W/m 12,9 km/h (3 Bft) 100,00 %
06.07.2023 11:36 20,2 C 22,8 C 20,6 C 67 % 1018,6 hPa 0,0 l/m 2 min 0 min 848 W/m 9,7 km/h (2 Bft) 100,00 %
06.07.2023 11:38 20,1 C 22,8 C 20,6 C 66 % 1018,6 hPa 0,0 l/m 0 min 0 min 149 W/m 12,9 km/h (3 Bft) 97,87 %
06.07.2023 11:40 20,1 C 22,8 C 20,6 C 67 % 1018,6 hPa 0,0 l/m 2 min 0 min 747 W/m 12,9 km/h (3 Bft) 97,87 %
06.07.2023 11:42 20,1 C 22,8 C 20,6 C 67 % 1018,6 hPa 0,0 l/m 2 min 0 min 925 W/m 12,9 km/h (3 Bft) 97,83 %
06.07.2023 11:44 20,2 C 22,8 C 20,6 C 67 % 1018,6 hPa 0,0 l/m 2 min 0 min 613 W/m 9,7 km/h (2 Bft) 100,00 %
06.07.2023 11:46 20,2 C 22,8 C 20,6 C 66 % 1018,6 hPa 0,0 l/m 2 min 0 min 436 W/m 12,9 km/h (3 Bft) 100,00 %
06.07.2023 11:48 20,1 C 22,8 C 21,1 C 66 % 1018,6 hPa 0,0 l/m 2 min 0 min 915 W/m 12,9 km/h (3 Bft) 100,00 %
06.07.2023 11:50 20,2 C 23,9 C 21,7 C 67 % 1018,6 hPa 0,0 l/m 2 min 0 min 993 W/m 22,5 km/h (4 Bft) 100,00 %
06.07.2023 11:52 20,4 C 24,4 C 21,7 C 67 % 1018,5 hPa 0,0 l/m 2 min 0 min 964 W/m 9,7 km/h (2 Bft) 97,87 %
06.07.2023 11:54 20,9 C 25,0 C 22,2 C 67 % 1018,5 hPa 0,0 l/m 2 min 0 min 859 W/m 12,9 km/h (3 Bft) 97,87 %
06.07.2023 11:56 21,1 C 25,0 C 22,2 C 65 % 1018,5 hPa 0,0 l/m 2 min 0 min 851 W/m 6,4 km/h (2 Bft) 100,00 %
06.07.2023 11:58 21,2 C 25,0 C 21,7 C 64 % 1018,6 hPa 0,0 l/m 2 min 0 min 851 W/m 12,9 km/h (3 Bft) 100,00 %
06.07.2023 12:00 21,2 C 25,6 C 22,2 C 64 % 1018,5 hPa 0,0 l/m 2 min 0 min 963 W/m 16,1 km/h (3 Bft) 100,00 %
06.07.2023 12:02 21,1 C 25,0 C 21,7 C 63 % 1018,6 hPa 0,0 l/m 2 min 0 min 890 W/m 12,9 km/h (3 Bft) 97,87 %
06.07.2023 12:04 21,1 C 25,0 C 21,1 C 64 % 1018,6 hPa 0,0 l/m 2 min 0 min 894 W/m 12,9 km/h (3 Bft) 100,00 %
06.07.2023 12:07 21,6 C 26,7 C 21,1 C 65 % 1018,5 hPa 0,0 l/m 3 min 0 min 979 W/m 12,9 km/h (3 Bft) 100,00 %
06.07.2023 12:08 21,6 C 26,7 C 21,1 C 64 % 1018,5 hPa 0,0 l/m 1 min 0 min 929 W/m 12,9 km/h (3 Bft) 98,89 %
06.07.2023 12:10 21,6 C 26,7 C 21,1 C 63 % 1018,5 hPa 0,0 l/m 2 min 0 min 967 W/m 22,5 km/h (4 Bft) 97,87 %
06.07.2023 12:12 21,6 C 26,1 C 21,1 C 63 % 1018,6 hPa 0,0 l/m 2 min 0 min 941 W/m 19,3 km/h (3 Bft) 100,00 %
06.07.2023 12:14 21,7 C 26,1 C 21,7 C 63 % 1018,6 hPa 0,0 l/m 2 min 0 min 946 W/m 9,7 km/h (2 Bft) 100,00 %
06.07.2023 12:16 21,7 C 25,6 C 21,7 C 62 % 1018,6 hPa 0,0 l/m 2 min 0 min 961 W/m 19,3 km/h (3 Bft) 100,00 %
06.07.2023 12:18 21,6 C 25,6 C 22,2 C 62 % 1018,5 hPa 0,0 l/m 2 min 0 min 969 W/m 12,9 km/h (3 Bft) 100,00 %
06.07.2023 12:20 21,4 C 23,9 C 21,1 C 62 % 1018,7 hPa 0,0 l/m 2 min 0 min 740 W/m 16,1 km/h (3 Bft) 100,00 %
06.07.2023 12:22 21,3 C 25,0 C 22,8 C 63 % 1018,6 hPa 0,0 l/m 2 min 0 min 471 W/m 9,7 km/h (2 Bft) 100,00 %
06.07.2023 12:24 21,2 C 25,0 C 23,9 C 61 % 1018,6 hPa 0,0 l/m 2 min 0 min 874 W/m 19,3 km/h (3 Bft) 100,00 %
06.07.2023 12:26 21,4 C 26,1 C 24,4 C 62 % 1018,6 hPa 0,0 l/m 2 min 0 min 942 W/m 6,4 km/h (2 Bft) 97,83 %
06.07.2023 12:28 21,6 C 25,0 C 23,9 C 61 % 1018,6 hPa 0,0 l/m 2 min 0 min 970 W/m 9,7 km/h (2 Bft) 97,87 %
06.07.2023 12:30 21,5 C 25,0 C 23,9 C 61 % 1018,7 hPa 0,0 l/m 2 min 0 min 982 W/m 19,3 km/h (3 Bft) 97,87 %
06.07.2023 12:32 21,3 C 23,3 C 22,8 C 62 % 1018,6 hPa 0,0 l/m 2 min 0 min 732 W/m 12,9 km/h (3 Bft) 97,87 %
06.07.2023 12:34 21,6 C 25,0 C 23,9 C 62 % 1018,5 hPa 0,0 l/m 2 min 0 min 550 W/m 3,2 km/h (1 Bft) 100,00 %
06.07.2023 12:36 21,6 C 23,3 C 22,8 C 61 % 1018,6 hPa 0,0 l/m 2 min 0 min 537 W/m 12,9 km/h (3 Bft) 97,87 %
06.07.2023 12:38 21,4 C 23,9 C 23,3 C 62 % 1018,6 hPa 0,0 l/m 0 min 0 min 260 W/m 12,9 km/h (3 Bft) 95,74 %
06.07.2023 12:40 21,3 C 24,4 C 23,9 C 60 % 1018,6 hPa 0,0 l/m 2 min 0 min 791 W/m 16,1 km/h (3 Bft) 97,83 %
06.07.2023 12:42 21,2 C 24,4 C 23,9 C 61 % 1018,6 hPa 0,0 l/m 2 min 0 min 905 W/m 22,5 km/h (4 Bft) 97,87 %
06.07.2023 12:44 21,2 C 24,4 C 23,3 C 62 % 1018,6 hPa 0,0 l/m 2 min 0 min 854 W/m 25,7 km/h (4 Bft) 97,87 %
06.07.2023 12:46 21,4 C 24,4 C 23,9 C 62 % 1018,6 hPa 0,0 l/m 2 min 0 min 820 W/m 6,4 km/h (2 Bft) 97,87 %
06.07.2023 12:48 21,6 C 25,0 C 24,4 C 62 % 1018,5 hPa 0,0 l/m 2 min 0 min 910 W/m 9,7 km/h (2 Bft) 97,87 %
06.07.2023 12:50 21,7 C 25,6 C 25,6 C 62 % 1018,5 hPa 0,0 l/m 2 min 0 min 945 W/m 12,9 km/h (3 Bft) 97,87 %
06.07.2023 12:52 21,8 C 25,6 C 25,6 C 60 % 1018,6 hPa 0,0 l/m 2 min 0 min 950 W/m 16,1 km/h (3 Bft) 93,48 %
06.07.2023 12:54 21,9 C 25,0 C 24,4 C 60 % 1018,5 hPa 0,0 l/m 2 min 0 min 946 W/m 6,4 km/h (2 Bft) 95,74 %
06.07.2023 12:56 21,9 C 24,4 C 23,3 C 60 % 1018,6 hPa 0,0 l/m 2 min 0 min 769 W/m 16,1 km/h (3 Bft) 95,74 %
06.07.2023 12:58 21,8 C 23,9 C 22,2 C 59 % 1018,6 hPa 0,0 l/m 2 min 0 min 758 W/m 19,3 km/h (3 Bft) 95,74 %
06.07.2023 13:00 21,6 C 22,2 C 21,1 C 59 % 1018,6 hPa 0,0 l/m 0 min 0 min 246 W/m 19,3 km/h (3 Bft) 97,87 %
06.07.2023 13:02 21,4 C 21,7 C 20,0 C 59 % 1018,6 hPa 0,0 l/m 0 min 0 min 210 W/m 9,7 km/h (2 Bft) 95,74 %
06.07.2023 13:04 21,1 C 21,1 C 19,4 C 60 % 1018,6 hPa 0,0 l/m 0 min 0 min 209 W/m 6,4 km/h (2 Bft) 93,62 %
06.07.2023 13:06 20,9 C 21,1 C 18,9 C 61 % 1018,7 hPa 0,0 l/m 0 min 0 min 209 W/m 12,9 km/h (3 Bft) 98,28 %
06.07.2023 13:08 20,8 C 22,2 C 18,9 C 61 % 1018,6 hPa 0,0 l/m 0 min 0 min 248 W/m 6,4 km/h (2 Bft) 97,14 %
06.07.2023 13:10 21,1 C 23,9 C 18,9 C 61 % 1018,7 hPa 0,0 l/m 2 min 0 min 598 W/m 6,4 km/h (2 Bft) 97,87 %
06.07.2023 13:12 21,6 C 25,6 C 19,4 C 61 % 1018,7 hPa 0,0 l/m 2 min 0 min 968 W/m 6,4 km/h (2 Bft) 95,74 %
06.07.2023 13:14 21,9 C 24,4 C 19,4 C 59 % 1018,7 hPa 0,0 l/m 2 min 0 min 924 W/m 9,7 km/h (2 Bft) 93,62 %
06.07.2023 13:16 21,8 C 23,9 C 19,4 C 59 % 1018,7 hPa 0,0 l/m 0 min 0 min 363 W/m 12,9 km/h (3 Bft) 97,87 %
06.07.2023 13:18 21,9 C 25,6 C 19,4 C 61 % 1018,7 hPa 0,0 l/m 2 min 0 min 782 W/m 12,9 km/h (3 Bft) 97,87 %
06.07.2023 13:20 22,2 C 25,6 C 20,0 C 58 % 1018,7 hPa 0,0 l/m 2 min 0 min 940 W/m 12,9 km/h (3 Bft) 93,48 %
06.07.2023 13:22 22,3 C 25,6 C 19,4 C 58 % 1018,7 hPa 0,0 l/m 2 min 0 min 917 W/m 12,9 km/h (3 Bft) 93,62 %
06.07.2023 13:24 22,1 C 26,1 C 19,4 C 60 % 1018,7 hPa 0,0 l/m 2 min 0 min 989 W/m 9,7 km/h (2 Bft) 95,74 %
06.07.2023 13:26 22,0 C 26,7 C 20,0 C 59 % 1018,6 hPa 0,0 l/m 2 min 0 min 988 W/m 3,2 km/h (1 Bft) 96,00 %
06.07.2023 13:28 22,1 C 26,1 C 20,0 C 58 % 1018,7 hPa 0,0 l/m 2 min 0 min 886 W/m 9,7 km/h (2 Bft) 93,62 %
06.07.2023 13:30 22,1 C 24,4 C 20,0 C 59 % 1018,7 hPa 0,0 l/m 0 min 0 min 285 W/m 9,7 km/h (2 Bft) 95,74 %
06.07.2023 13:32 22,3 C 26,1 C 20,0 C 60 % 1018,7 hPa 0,0 l/m 2 min 0 min 864 W/m 12,9 km/h (3 Bft) 95,92 %
06.07.2023 13:34 22,5 C 26,1 C 20,6 C 58 % 1018,7 hPa 0,0 l/m 2 min 0 min 975 W/m 9,7 km/h (2 Bft) 93,62 %
06.07.2023 13:36 22,3 C 23,9 C 20,0 C 56 % 1018,7 hPa 0,0 l/m 2 min 0 min 491 W/m 12,9 km/h (3 Bft) 97,56 %
06.07.2023 13:38 22,2 C 25,6 C 20,6 C 58 % 1018,7 hPa 0,0 l/m 0 min 0 min 355 W/m 6,4 km/h (2 Bft) 96,00 %
06.07.2023 13:40 22,3 C 26,1 C 21,7 C 59 % 1018,7 hPa 0,0 l/m 0 min 0 min 355 W/m 6,4 km/h (2 Bft) 97,87 %
06.07.2023 13:42 22,6 C 26,1 C 21,7 C 57 % 1018,6 hPa 0,0 l/m 0 min 0 min 355 W/m 22,5 km/h (4 Bft) 97,96 %
06.07.2023 13:44 22,6 C 25,0 C 21,7 C 56 % 1018,7 hPa 0,0 l/m 2 min 0 min 654 W/m 16,1 km/h (3 Bft) 95,74 %
06.07.2023 13:46 22,4 C 23,9 C 21,1 C 57 % 1018,7 hPa 0,0 l/m 2 min 0 min 487 W/m 12,9 km/h (3 Bft) 97,87 %
06.07.2023 13:48 22,2 C 24,4 C 21,1 C 60 % 1018,8 hPa 0,0 l/m 0 min 0 min 366 W/m 6,4 km/h (2 Bft) 95,74 %
06.07.2023 13:50 22,2 C 25,6 C 22,2 C 58 % 1018,8 hPa 0,0 l/m 2 min 0 min 663 W/m 16,1 km/h (3 Bft) 97,87 %
06.07.2023 13:52 22,4 C 27,2 C 23,3 C 57 % 1018,8 hPa 0,0 l/m 2 min 0 min 1034 W/m 12,9 km/h (3 Bft) 97,87 %
06.07.2023 13:54 22,6 C 26,1 C 24,4 C 57 % 1018,8 hPa 0,0 l/m 2 min 0 min 1005 W/m 12,9 km/h (3 Bft) 95,65 %
06.07.2023 13:56 22,4 C 23,9 C 22,2 C 57 % 1018,8 hPa 0,0 l/m 0 min 0 min 348 W/m 12,9 km/h (3 Bft) 95,74 %
06.07.2023 13:58 22,2 C 23,3 C 21,7 C 58 % 1018,8 hPa 0,0 l/m 0 min 0 min 283 W/m 12,9 km/h (3 Bft) 97,87 %
06.07.2023 14:00 21,9 C 22,8 C 20,6 C 57 % 1018,8 hPa 0,0 l/m 0 min 0 min 259 W/m 16,1 km/h (3 Bft) 97,87 %
06.07.2023 14:02 21,7 C 22,2 C 20,0 C 58 % 1018,7 hPa 0,0 l/m 0 min 0 min 257 W/m 6,4 km/h (2 Bft) 97,87 %
06.07.2023 14:04 21,6 C 22,2 C 19,4 C 60 % 1018,7 hPa 0,0 l/m 0 min 0 min 279 W/m 6,4 km/h (2 Bft) 97,87 %
06.07.2023 14:06 21,6 C 22,2 C 18,9 C 59 % 1018,7 hPa 0,0 l/m 0 min 0 min 301 W/m 6,4 km/h (2 Bft) 97,87 %
06.07.2023 14:08 21,7 C 23,9 C 19,4 C 59 % 1018,8 hPa 0,0 l/m 0 min 0 min 347 W/m 9,7 km/h (2 Bft) 97,87 %
06.07.2023 14:10 21,9 C 25,0 C 19,4 C 59 % 1018,7 hPa 0,0 l/m 2 min 0 min 977 W/m 9,7 km/h (2 Bft) 97,83 %
06.07.2023 14:12 22,0 C 23,9 C 19,4 C 59 % 1018,7 hPa 0,0 l/m 2 min 0 min 501 W/m 16,1 km/h (3 Bft) 97,87 %
06.07.2023 14:14 22,0 C 23,9 C 19,4 C 58 % 1018,7 hPa 0,0 l/m 0 min 0 min 349 W/m 9,7 km/h (2 Bft) 97,87 %
06.07.2023 14:16 22,2 C 23,9 C 19,4 C 59 % 1018,8 hPa 0,0 l/m 2 min 0 min 647 W/m 6,4 km/h (2 Bft) 97,87 %
06.07.2023 14:18 22,3 C 25,6 C 19,4 C 58 % 1018,7 hPa 0,0 l/m 2 min 0 min 820 W/m 16,1 km/h (3 Bft) 95,74 %
06.07.2023 14:20 22,5 C 25,6 C 19,4 C 56 % 1018,7 hPa 0,0 l/m 2 min 0 min 759 W/m 16,1 km/h (3 Bft) 97,87 %
06.07.2023 14:22 22,6 C 26,1 C 19,4 C 55 % 1018,7 hPa 0,0 l/m 2 min 0 min 744 W/m 9,7 km/h (2 Bft) 97,87 %
06.07.2023 14:24 22,8 C 26,7 C 20,0 C 56 % 1018,7 hPa 0,0 l/m 2 min 0 min 892 W/m 16,1 km/h (3 Bft) 100,00 %
06.07.2023 14:26 22,9 C 27,2 C 20,0 C 55 % 1018,7 hPa 0,0 l/m 2 min 0 min 939 W/m 6,4 km/h (2 Bft) 95,74 %
06.07.2023 14:28 22,9 C 25,6 C 19,4 C 55 % 1018,7 hPa 0,0 l/m 2 min 0 min 939 W/m 12,9 km/h (3 Bft) 97,87 %
06.07.2023 14:30 22,7 C 24,4 C 19,4 C 55 % 1018,7 hPa 0,0 l/m 2 min 0 min 688 W/m 9,7 km/h (2 Bft) 97,87 %
06.07.2023 14:32 22,4 C 23,3 C 19,4 C 56 % 1018,7 hPa 0,0 l/m 0 min 0 min 235 W/m 6,4 km/h (2 Bft) 97,87 %
06.07.2023 14:34 22,2 C 22,8 C 18,9 C 56 % 1018,7 hPa 0,0 l/m 0 min 0 min 247 W/m 12,9 km/h (3 Bft) 97,87 %
06.07.2023 14:36 22,0 C 24,4 C 18,9 C 58 % 1018,7 hPa 0,0 l/m 0 min 0 min 262 W/m 16,1 km/h (3 Bft) 97,83 %
06.07.2023 14:38 22,1 C 26,1 C 18,9 C 57 % 1018,7 hPa 0,0 l/m 2 min 0 min 971 W/m 16,1 km/h (3 Bft) 97,87 %
06.07.2023 14:40 22,3 C 26,7 C 19,4 C 57 % 1018,7 hPa 0,0 l/m 2 min 0 min 992 W/m 6,4 km/h (2 Bft) 97,87 %
06.07.2023 14:42 22,9 C 27,8 C 19,4 C 57 % 1018,7 hPa 0,0 l/m 2 min 0 min 986 W/m 12,9 km/h (3 Bft) 97,87 %
06.07.2023 14:44 23,2 C 27,8 C 20,0 C 56 % 1018,6 hPa 0,0 l/m 2 min 0 min 988 W/m 12,9 km/h (3 Bft) 97,87 %
06.07.2023 14:46 23,4 C 26,1 C 20,0 C 55 % 1018,7 hPa 0,0 l/m 2 min 0 min 601 W/m 22,5 km/h (4 Bft) 95,74 %
06.07.2023 14:48 23,2 C 27,2 C 20,0 C 56 % 1018,7 hPa 0,0 l/m 0 min 0 min 385 W/m 9,7 km/h (2 Bft) 95,74 %
06.07.2023 14:50 23,4 C 27,8 C 20,0 C 56 % 1018,7 hPa 0,0 l/m 2 min 0 min 904 W/m 12,9 km/h (3 Bft) 97,83 %
06.07.2023 14:52 23,7 C 28,3 C 20,0 C 55 % 1018,7 hPa 0,0 l/m 2 min 0 min 891 W/m 22,5 km/h (4 Bft) 97,87 %
06.07.2023 14:54 23,8 C 28,3 C 20,0 C 54 % 1018,7 hPa 0,0 l/m 2 min 0 min 924 W/m 9,7 km/h (2 Bft) 97,87 %
06.07.2023 14:56 23,9 C 29,4 C 20,0 C 54 % 1018,6 hPa 0,0 l/m 2 min 0 min 907 W/m 6,4 km/h (2 Bft) 97,87 %
06.07.2023 14:58 23,9 C 28,3 C 20,0 C 54 % 1018,6 hPa 0,0 l/m 2 min 0 min 913 W/m 16,1 km/h (3 Bft) 100,00 %
06.07.2023 15:00 23,8 C 26,7 C 20,0 C 53 % 1018,6 hPa 0,0 l/m 0 min 0 min 349 W/m 6,4 km/h (2 Bft) 100,00 %
06.07.2023 15:02 23,4 C 25,0 C 20,0 C 54 % 1018,6 hPa 0,0 l/m 0 min 0 min 232 W/m 12,9 km/h (3 Bft) 100,00 %
06.07.2023 15:04 23,1 C 23,9 C 20,0 C 54 % 1018,7 hPa 0,0 l/m 0 min 0 min 268 W/m 16,1 km/h (3 Bft) 100,00 %
06.07.2023 15:06 22,9 C 23,9 C 19,4 C 55 % 1018,6 hPa 0,0 l/m 0 min 0 min 279 W/m 9,7 km/h (2 Bft) 97,92 %
06.07.2023 15:08 22,8 C 23,9 C 19,4 C 56 % 1018,6 hPa 0,0 l/m 0 min 0 min 328 W/m 6,4 km/h (2 Bft) 100,00 %
06.07.2023 15:10 23,0 C 23,9 C 19,4 C 57 % 1018,6 hPa 0,0 l/m 0 min 0 min 308 W/m 6,4 km/h (2 Bft) 100,00 %
06.07.2023 15:12 22,9 C 23,3 C 19,4 C 56 % 1018,6 hPa 0,0 l/m 0 min 0 min 272 W/m 12,9 km/h (3 Bft) 100,00 %
06.07.2023 15:14 23,0 C 23,3 C 19,4 C 57 % 1018,6 hPa 0,0 l/m 0 min 0 min 273 W/m 3,2 km/h (1 Bft) 100,00 %
06.07.2023 15:16 22,9 C 24,4 C 19,4 C 56 % 1018,6 hPa 0,0 l/m 0 min 0 min 301 W/m 12,9 km/h (3 Bft) 100,00 %
06.07.2023 15:18 23,1 C 26,7 C 19,4 C 57 % 1018,6 hPa 0,0 l/m 2 min 0 min 636 W/m 12,9 km/h (3 Bft) 100,00 %
06.07.2023 15:20 23,4 C 26,7 C 20,0 C 56 % 1018,6 hPa 0,0 l/m 2 min 0 min 930 W/m 12,9 km/h (3 Bft) 100,00 %
06.07.2023 15:22 23,4 C 26,1 C 20,0 C 55 % 1018,6 hPa 0,0 l/m 0 min 0 min 296 W/m 12,9 km/h (3 Bft) 100,00 %
06.07.2023 15:24 23,3 C 26,1 C 19,4 C 55 % 1018,6 hPa 0,0 l/m 0 min 0 min 384 W/m 9,7 km/h (2 Bft) 100,00 %
06.07.2023 15:26 23,4 C 25,0 C 19,4 C 55 % 1018,6 hPa 0,0 l/m 0 min 0 min 308 W/m 22,5 km/h (4 Bft) 100,00 %
06.07.2023 15:28 22,9 C 23,9 C 19,4 C 54 % 1018,5 hPa 0,0 l/m 0 min 0 min 240 W/m 32,2 km/h (5 Bft) 97,83 %
06.07.2023 15:30 22,7 C 23,3 C 18,9 C 55 % 1018,5 hPa 0,0 l/m 0 min 0 min 262 W/m 16,1 km/h (3 Bft) 97,87 %
06.07.2023 15:32 22,7 C 23,3 C 18,9 C 56 % 1018,5 hPa 0,0 l/m 0 min 0 min 318 W/m 3,2 km/h (1 Bft) 95,74 %
06.07.2023 15:34 22,7 C 25,0 C 19,4 C 56 % 1018,6 hPa 0,0 l/m 2 min 0 min 415 W/m 12,9 km/h (3 Bft) 97,87 %
06.07.2023 15:36 22,9 C 24,4 C 19,4 C 56 % 1018,5 hPa 0,0 l/m 2 min 0 min 417 W/m 12,9 km/h (3 Bft) 95,74 %
06.07.2023 15:38 23,2 C 25,0 C 19,4 C 56 % 1018,6 hPa 0,0 l/m 2 min 0 min 446 W/m 16,1 km/h (3 Bft) 97,87 %
06.07.2023 15:40 23,1 C 25,0 C 19,4 C 54 % 1018,5 hPa 0,0 l/m 2 min 0 min 615 W/m 12,9 km/h (3 Bft) 95,74 %
06.07.2023 15:42 22,9 C 26,1 C 19,4 C 56 % 1018,6 hPa 0,0 l/m 2 min 0 min 615 W/m 16,1 km/h (3 Bft) 97,83 %
06.07.2023 15:44 23,1 C 27,2 C 19,4 C 55 % 1018,5 hPa 0,0 l/m 2 min 0 min 759 W/m 12,9 km/h (3 Bft) 97,87 %
06.07.2023 15:46 23,6 C 27,8 C 19,4 C 53 % 1018,5 hPa 0,0 l/m 2 min 0 min 846 W/m 9,7 km/h (2 Bft) 97,87 %
06.07.2023 15:48 23,6 C 27,8 C 19,4 C 51 % 1018,5 hPa 0,0 l/m 2 min 0 min 791 W/m 12,9 km/h (3 Bft) 95,74 %
06.07.2023 15:50 23,4 C 27,8 C 20,0 C 52 % 1018,5 hPa 0,0 l/m 2 min 0 min 819 W/m 12,9 km/h (3 Bft) 97,87 %
06.07.2023 15:52 23,4 C 27,8 C 20,0 C 52 % 1018,5 hPa 0,0 l/m 2 min 0 min 780 W/m 12,9 km/h (3 Bft) 95,74 %
06.07.2023 15:54 23,7 C 28,3 C 20,0 C 53 % 1018,5 hPa 0,0 l/m 2 min 0 min 803 W/m 9,7 km/h (2 Bft) 97,83 %
06.07.2023 15:56 23,8 C 28,3 C 20,0 C 51 % 1018,5 hPa 0,0 l/m 2 min 0 min 811 W/m 9,7 km/h (2 Bft) 97,87 %
06.07.2023 15:58 23,8 C 28,3 C 20,0 C 52 % 1018,5 hPa 0,0 l/m 2 min 0 min 828 W/m 16,1 km/h (3 Bft) 97,87 %
06.07.2023 16:00 23,9 C 28,3 C 20,0 C 52 % 1018,4 hPa 0,0 l/m 2 min 0 min 855 W/m 12,9 km/h (3 Bft) 97,87 %
06.07.2023 16:02 23,8 C 28,3 C 20,0 C 52 % 1018,4 hPa 0,0 l/m 2 min 0 min 860 W/m 12,9 km/h (3 Bft) 97,87 %
06.07.2023 16:04 24,1 C 28,9 C 20,0 C 52 % 1018,4 hPa 0,0 l/m 2 min 0 min 857 W/m 16,1 km/h (3 Bft) 95,74 %
06.07.2023 16:06 24,1 C 29,4 C 20,0 C 51 % 1018,4 hPa 0,0 l/m 2 min 0 min 849 W/m 9,7 km/h (2 Bft) 95,74 %
06.07.2023 16:08 24,2 C 28,9 C 20,0 C 50 % 1018,4 hPa 0,0 l/m 2 min 0 min 853 W/m 12,9 km/h (3 Bft) 97,83 %
06.07.2023 16:10 24,2 C 28,3 C 20,0 C 50 % 1018,4 hPa 0,0 l/m 2 min 0 min 838 W/m 12,9 km/h (3 Bft) 100,00 %
06.07.2023 16:12 24,1 C 26,7 C 20,0 C 50 % 1018,4 hPa 0,0 l/m 2 min 0 min 833 W/m 12,9 km/h (3 Bft) 97,87 %
06.07.2023 16:14 23,9 C 25,6 C 20,0 C 51 % 1018,4 hPa 0,0 l/m 2 min 0 min 684 W/m 12,9 km/h (3 Bft) 100,00 %
06.07.2023 16:16 23,8 C 25,6 C 20,0 C 50 % 1018,4 hPa 0,0 l/m 0 min 0 min 199 W/m 12,9 km/h (3 Bft) 100,00 %
06.07.2023 16:18 23,4 C 26,7 C 20,0 C 50 % 1018,4 hPa 0,0 l/m 2 min 0 min 838 W/m 12,9 km/h (3 Bft) 100,00 %
06.07.2023 16:20 23,6 C 27,8 C 20,0 C 51 % 1018,3 hPa 0,0 l/m 2 min 0 min 881 W/m 6,4 km/h (2 Bft) 100,00 %
06.07.2023 16:22 23,9 C 28,3 C 20,0 C 51 % 1018,3 hPa 0,0 l/m 2 min 0 min 894 W/m 16,1 km/h (3 Bft) 97,87 %
06.07.2023 16:24 24,2 C 28,3 C 20,0 C 51 % 1018,3 hPa 0,0 l/m 2 min 0 min 889 W/m 19,3 km/h (3 Bft) 97,87 %
06.07.2023 16:26 24,4 C 27,8 C 20,6 C 50 % 1018,4 hPa 0,0 l/m 2 min 0 min 893 W/m 16,1 km/h (3 Bft) 97,87 %
06.07.2023 16:28 24,1 C 26,1 C 20,0 C 50 % 1018,4 hPa 0,0 l/m 2 min 0 min 620 W/m 9,7 km/h (2 Bft) 95,74 %
06.07.2023 16:30 24,0 C 25,6 C 20,0 C 51 % 1018,4 hPa 0,0 l/m 0 min 0 min 260 W/m 16,1 km/h (3 Bft) 97,87 %
06.07.2023 16:32 23,8 C 25,0 C 20,0 C 51 % 1018,4 hPa 0,0 l/m 0 min 0 min 242 W/m 19,3 km/h (3 Bft) 97,87 %
06.07.2023 16:34 23,5 C 23,9 C 19,4 C 52 % 1018,4 hPa 0,0 l/m 0 min 0 min 243 W/m 16,1 km/h (3 Bft) 97,83 %
06.07.2023 16:36 23,3 C 23,9 C 19,4 C 52 % 1018,4 hPa 0,0 l/m 0 min 0 min 264 W/m 6,4 km/h (2 Bft) 95,74 %
06.07.2023 16:38 23,2 C 23,9 C 19,4 C 53 % 1018,4 hPa 0,0 l/m 0 min 0 min 280 W/m 6,4 km/h (2 Bft) 97,87 %
06.07.2023 16:40 23,2 C 25,6 C 19,4 C 54 % 1018,4 hPa 0,0 l/m 2 min 0 min 429 W/m 12,9 km/h (3 Bft) 97,87 %
06.07.2023 16:42 23,5 C 27,2 C 20,0 C 54 % 1018,4 hPa 0,0 l/m 2 min 0 min 870 W/m 6,4 km/h (2 Bft) 97,87 %
06.07.2023 16:44 24,0 C 27,8 C 20,0 C 53 % 1018,4 hPa 0,0 l/m 2 min 0 min 868 W/m 6,4 km/h (2 Bft) 97,87 %
06.07.2023 16:46 24,2 C 28,9 C 20,6 C 52 % 1018,4 hPa 0,0 l/m 2 min 0 min 868 W/m 12,9 km/h (3 Bft) 95,74 %
06.07.2023 16:48 24,5 C 29,4 C 20,6 C 53 % 1018,4 hPa 0,0 l/m 2 min 0 min 842 W/m 6,4 km/h (2 Bft) 95,65 %
06.07.2023 16:50 24,7 C 29,4 C 20,6 C 51 % 1018,5 hPa 0,0 l/m 2 min 0 min 801 W/m 6,4 km/h (2 Bft) 95,74 %
06.07.2023 16:52 24,8 C 30,0 C 21,1 C 51 % 1018,4 hPa 0,0 l/m 2 min 0 min 808 W/m 6,4 km/h (2 Bft) 91,49 %
06.07.2023 16:54 24,6 C 30,0 C 20,6 C 50 % 1018,4 hPa 0,0 l/m 2 min 0 min 797 W/m 9,7 km/h (2 Bft) 93,62 %
06.07.2023 16:56 24,4 C 29,4 C 20,6 C 49 % 1018,4 hPa 0,0 l/m 2 min 0 min 785 W/m 19,3 km/h (3 Bft) 95,74 %
06.07.2023 16:58 24,4 C 29,4 C 20,6 C 49 % 1018,4 hPa 0,0 l/m 2 min 0 min 751 W/m 12,9 km/h (3 Bft) 93,62 %
06.07.2023 17:00 24,2 C 28,9 C 20,6 C 49 % 1018,4 hPa 0,0 l/m 2 min 0 min 728 W/m 16,1 km/h (3 Bft) 95,65 %
06.07.2023 17:02 24,3 C 29,4 C 20,6 C 50 % 1018,4 hPa 0,0 l/m 2 min 0 min 685 W/m 3,2 km/h (1 Bft) 97,87 %
06.07.2023 17:04 24,6 C 29,4 C 20,6 C 50 % 1018,4 hPa 0,0 l/m 2 min 0 min 667 W/m 9,7 km/h (2 Bft) 95,74 %
06.07.2023 17:06 24,8 C 28,3 C 20,6 C 50 % 1018,4 hPa 0,0 l/m 2 min 0 min 679 W/m 12,9 km/h (3 Bft) 97,87 %
06.07.2023 17:08 24,5 C 27,2 C 20,6 C 49 % 1018,4 hPa 0,0 l/m 0 min 0 min 185 W/m 6,4 km/h (2 Bft) 97,87 %
06.07.2023 17:10 24,1 C 25,6 C 20,0 C 50 % 1018,3 hPa 0,0 l/m 0 min 0 min 152 W/m 9,7 km/h (2 Bft) 95,74 %
06.07.2023 17:12 23,8 C 25,0 C 20,0 C 51 % 1018,4 hPa 0,0 l/m 0 min 0 min 162 W/m 12,9 km/h (3 Bft) 100,00 %
06.07.2023 17:14 23,7 C 24,4 C 20,0 C 51 % 1018,4 hPa 0,0 l/m 0 min 0 min 189 W/m 9,7 km/h (2 Bft) 97,83 %
06.07.2023 17:16 23,7 C 26,1 C 20,0 C 51 % 1018,4 hPa 0,0 l/m 2 min 0 min 453 W/m 9,7 km/h (2 Bft) 97,87 %
06.07.2023 17:18 23,9 C 27,2 C 20,0 C 51 % 1018,4 hPa 0,0 l/m 2 min 0 min 767 W/m 9,7 km/h (2 Bft) 97,87 %
06.07.2023 17:20 24,1 C 28,9 C 20,6 C 51 % 1018,3 hPa 0,0 l/m 2 min 0 min 751 W/m 12,9 km/h (3 Bft) 97,87 %
06.07.2023 17:22 24,4 C 28,9 C 20,6 C 50 % 1018,3 hPa 0,0 l/m 2 min 0 min 736 W/m 12,9 km/h (3 Bft) 97,87 %
06.07.2023 17:24 24,7 C 28,9 C 20,6 C 50 % 1018,3 hPa 0,0 l/m 2 min 0 min 738 W/m 12,9 km/h (3 Bft) 97,87 %
06.07.2023 17:26 24,4 C 28,3 C 20,6 C 50 % 1018,4 hPa 0,0 l/m 2 min 0 min 738 W/m 19,3 km/h (3 Bft) 95,74 %
06.07.2023 17:28 24,3 C 28,9 C 20,6 C 50 % 1018,3 hPa 0,0 l/m 2 min 0 min 699 W/m 16,1 km/h (3 Bft) 95,65 %
06.07.2023 17:30 24,5 C 28,9 C 20,6 C 52 % 1018,3 hPa 0,0 l/m 2 min 0 min 658 W/m 6,4 km/h (2 Bft) 97,87 %
06.07.2023 17:32 24,6 C 28,9 C 20,6 C 50 % 1018,3 hPa 0,0 l/m 2 min 0 min 657 W/m 12,9 km/h (3 Bft) 97,87 %
06.07.2023 17:34 24,5 C 28,9 C 20,6 C 50 % 1018,2 hPa 0,0 l/m 2 min 0 min 650 W/m 12,9 km/h (3 Bft) 95,74 %
06.07.2023 17:36 24,3 C 28,9 C 20,6 C 50 % 1018,2 hPa 0,0 l/m 2 min 0 min 644 W/m 12,9 km/h (3 Bft) 97,87 %
06.07.2023 17:38 24,2 C 28,9 C 20,6 C 50 % 1018,2 hPa 0,0 l/m 2 min 0 min 646 W/m 16,1 km/h (3 Bft) 97,87 %
06.07.2023 17:40 24,2 C 28,9 C 20,6 C 51 % 1018,2 hPa 0,0 l/m 2 min 0 min 647 W/m 12,9 km/h (3 Bft) 100,00 %
06.07.2023 17:42 24,3 C 29,4 C 21,1 C 50 % 1018,2 hPa 0,0 l/m 2 min 0 min 640 W/m 12,9 km/h (3 Bft) 100,00 %
06.07.2023 17:44 24,6 C 30,0 C 21,1 C 50 % 1018,2 hPa 0,0 l/m 2 min 0 min 631 W/m 9,7 km/h (2 Bft) 100,00 %
06.07.2023 17:46 24,6 C 30,0 C 21,1 C 50 % 1018,2 hPa 0,0 l/m 2 min 0 min 590 W/m 12,9 km/h (3 Bft) 97,87 %
06.07.2023 17:48 24,4 C 28,3 C 20,6 C 49 % 1018,2 hPa 0,0 l/m 2 min 0 min 620 W/m 16,1 km/h (3 Bft) 100,00 %
06.07.2023 17:50 24,3 C 27,2 C 20,6 C 50 % 1018,2 hPa 0,0 l/m 2 min 0 min 619 W/m 6,4 km/h (2 Bft) 100,00 %
06.07.2023 17:52 24,2 C 26,1 C 20,0 C 50 % 1018,2 hPa 0,0 l/m 0 min 0 min 141 W/m 16,1 km/h (3 Bft) 100,00 %
06.07.2023 17:54 23,9 C 25,0 C 20,0 C 51 % 1018,1 hPa 0,0 l/m 0 min 0 min 128 W/m 6,4 km/h (2 Bft) 97,83 %
06.07.2023 17:56 23,7 C 25,6 C 20,0 C 52 % 1018,1 hPa 0,0 l/m 0 min 0 min 116 W/m 9,7 km/h (2 Bft) 100,00 %
06.07.2023 17:58 23,8 C 26,1 C 20,0 C 52 % 1018,2 hPa 0,0 l/m 2 min 0 min 264 W/m 9,7 km/h (2 Bft) 100,00 %
06.07.2023 18:00 23,8 C 27,2 C 20,0 C 53 % 1018,1 hPa 0,0 l/m 2 min 0 min 444 W/m 12,9 km/h (3 Bft) 100,00 %
06.07.2023 18:02 23,9 C 27,8 C 20,0 C 51 % 1018,0 hPa 0,0 l/m 2 min 0 min 604 W/m 9,7 km/h (2 Bft) 97,87 %
06.07.2023 18:04 23,9 C 28,3 C 20,6 C 52 % 1018,1 hPa 0,0 l/m 2 min 0 min 611 W/m 12,9 km/h (3 Bft) 97,62 %
06.07.2023 18:08 24,5 C 30,0 C 21,1 C 51 % 1018,0 hPa 0,0 l/m 4 min 0 min 614 W/m 12,9 km/h (3 Bft) 96,63 %
06.07.2023 18:10 24,6 C 30,0 C 21,7 C 49 % 1018,0 hPa 0,0 l/m 2 min 0 min 613 W/m 9,7 km/h (2 Bft) 97,83 %
06.07.2023 18:12 24,6 C 30,0 C 21,7 C 49 % 1018,1 hPa 0,0 l/m 2 min 0 min 600 W/m 16,1 km/h (3 Bft) 97,87 %
06.07.2023 18:14 24,4 C 29,4 C 21,1 C 49 % 1018,1 hPa 0,0 l/m 2 min 0 min 580 W/m 16,1 km/h (3 Bft) 95,74 %
06.07.2023 18:16 24,3 C 28,9 C 21,1 C 49 % 1018,0 hPa 0,0 l/m 2 min 0 min 525 W/m 12,9 km/h (3 Bft) 97,87 %
06.07.2023 18:18 24,4 C 27,8 C 20,6 C 49 % 1018,1 hPa 0,0 l/m 2 min 0 min 439 W/m 16,1 km/h (3 Bft) 97,87 %
06.07.2023 18:20 24,3 C 27,8 C 20,6 C 49 % 1018,0 hPa 0,0 l/m 2 min 0 min 447 W/m 12,9 km/h (3 Bft) 95,74 %
06.07.2023 18:22 24,2 C 28,3 C 20,6 C 49 % 1018,0 hPa 0,0 l/m 2 min 0 min 464 W/m 6,4 km/h (2 Bft) 97,83 %
06.07.2023 18:24 24,3 C 27,8 C 20,6 C 49 % 1018,1 hPa 0,0 l/m 2 min 0 min 478 W/m 12,9 km/h (3 Bft) 93,62 %
06.07.2023 18:26 24,3 C 28,3 C 20,6 C 51 % 1018,1 hPa 0,0 l/m 2 min 0 min 326 W/m 6,4 km/h (2 Bft) 95,74 %
06.07.2023 18:28 24,3 C 28,3 C 20,6 C 49 % 1018,1 hPa 0,0 l/m 2 min 0 min 436 W/m 9,7 km/h (2 Bft) 95,74 %
06.07.2023 18:30 24,3 C 28,9 C 20,6 C 49 % 1018,1 hPa 0,0 l/m 2 min 0 min 515 W/m 6,4 km/h (2 Bft) 95,74 %
06.07.2023 18:32 24,2 C 29,4 C 20,6 C 49 % 1018,1 hPa 0,0 l/m 2 min 0 min 512 W/m 6,4 km/h (2 Bft) 93,62 %
06.07.2023 18:34 24,2 C 30,0 C 20,6 C 50 % 1018,1 hPa 0,0 l/m 2 min 0 min 498 W/m 12,9 km/h (3 Bft) 93,62 %
06.07.2023 18:36 24,4 C 29,4 C 21,1 C 49 % 1018,1 hPa 0,0 l/m 2 min 0 min 484 W/m 9,7 km/h (2 Bft) 95,65 %
06.07.2023 18:38 24,6 C 29,4 C 21,1 C 48 % 1018,1 hPa 0,0 l/m 2 min 0 min 479 W/m 6,4 km/h (2 Bft) 95,74 %
06.07.2023 18:40 24,4 C 29,4 C 20,6 C 48 % 1018,0 hPa 0,0 l/m 2 min 0 min 461 W/m 6,4 km/h (2 Bft) 95,74 %
06.07.2023 18:42 24,4 C 29,4 C 20,6 C 49 % 1018,0 hPa 0,0 l/m 2 min 0 min 428 W/m 12,9 km/h (3 Bft) 95,74 %
06.07.2023 18:44 24,2 C 28,9 C 20,6 C 49 % 1018,1 hPa 0,0 l/m 2 min 0 min 434 W/m 12,9 km/h (3 Bft) 93,62 %
06.07.2023 18:46 24,2 C 28,9 C 20,6 C 49 % 1018,0 hPa 0,0 l/m 2 min 0 min 417 W/m 12,9 km/h (3 Bft) 97,87 %
06.07.2023 18:48 24,2 C 29,4 C 20,6 C 50 % 1018,0 hPa 0,0 l/m 2 min 0 min 400 W/m 12,9 km/h (3 Bft) 97,87 %
06.07.2023 18:50 24,4 C 29,4 C 21,1 C 50 % 1018,0 hPa 0,0 l/m 2 min 0 min 373 W/m 6,4 km/h (2 Bft) 97,83 %
06.07.2023 18:52 24,4 C 30,0 C 21,1 C 51 % 1018,0 hPa 0,0 l/m 2 min 0 min 379 W/m 12,9 km/h (3 Bft) 97,87 %
06.07.2023 18:54 24,6 C 29,4 C 21,1 C 49 % 1018,1 hPa 0,0 l/m 2 min 0 min 371 W/m 9,7 km/h (2 Bft) 95,74 %
06.07.2023 18:56 24,7 C 29,4 C 21,1 C 49 % 1018,1 hPa 0,0 l/m 2 min 0 min 370 W/m 6,4 km/h (2 Bft) 95,74 %
06.07.2023 18:58 24,4 C 29,4 C 21,1 C 48 % 1018,0 hPa 0,0 l/m 2 min 0 min 370 W/m 3,2 km/h (1 Bft) 100,00 %
06.07.2023 19:00 24,3 C 29,4 C 20,6 C 49 % 1018,1 hPa 0,0 l/m 2 min 0 min 387 W/m 9,7 km/h (2 Bft) 100,00 %
06.07.2023 19:02 24,3 C 28,9 C 21,1 C 49 % 1018,0 hPa 0,0 l/m 2 min 0 min 370 W/m 12,9 km/h (3 Bft) 100,00 %
06.07.2023 19:04 24,3 C 28,9 C 21,1 C 49 % 1018,0 hPa 0,0 l/m 2 min 0 min 357 W/m 9,7 km/h (2 Bft) 100,00 %
06.07.2023 19:06 24,2 C 26,7 C 20,6 C 49 % 1018,0 hPa 0,0 l/m 2 min 0 min 222 W/m 12,9 km/h (3 Bft) 96,61 %
06.07.2023 19:08 24,0 C 25,6 C 20,6 C 49 % 1018,1 hPa 0,0 l/m 0 min 0 min 86 W/m 12,9 km/h (3 Bft) 100,00 %
06.07.2023 19:10 23,8 C 25,6 C 20,0 C 50 % 1018,1 hPa 0,0 l/m 0 min 0 min 146 W/m 3,2 km/h (1 Bft) 97,87 %
06.07.2023 19:12 23,8 C 26,1 C 20,0 C 49 % 1018,2 hPa 0,0 l/m 2 min 0 min 253 W/m 6,4 km/h (2 Bft) 100,00 %
06.07.2023 19:14 23,7 C 25,6 C 20,0 C 49 % 1018,1 hPa 0,0 l/m 2 min 0 min 227 W/m 9,7 km/h (2 Bft) 100,00 %
06.07.2023 19:16 23,6 C 25,0 C 20,0 C 51 % 1018,1 hPa 0,0 l/m 0 min 0 min 116 W/m 9,7 km/h (2 Bft) 100,00 %
06.07.2023 19:18 23,6 C 25,0 C 19,4 C 51 % 1018,0 hPa 0,0 l/m 0 min 0 min 86 W/m 3,2 km/h (1 Bft) 100,00 %
06.07.2023 19:20 23,6 C 25,6 C 20,0 C 51 % 1018,1 hPa 0,0 l/m 2 min 0 min 286 W/m 3,2 km/h (1 Bft) 100,00 %
06.07.2023 19:22 23,7 C 26,1 C 19,4 C 50 % 1018,1 hPa 0,0 l/m 2 min 0 min 261 W/m 3,2 km/h (1 Bft) 100,00 %
06.07.2023 19:24 23,7 C 26,1 C 19,4 C 50 % 1018,2 hPa 0,0 l/m 2 min 0 min 232 W/m 3,2 km/h (1 Bft) 100,00 %
06.07.2023 19:26 23,6 C 26,7 C 19,4 C 51 % 1018,2 hPa 0,0 l/m 2 min 0 min 289 W/m 3,2 km/h (1 Bft) 97,87 %
06.07.2023 19:28 23,5 C 26,1 C 19,4 C 49 % 1018,2 hPa 0,0 l/m 2 min 0 min 286 W/m 6,4 km/h (2 Bft) 100,00 %
06.07.2023 19:30 23,5 C 26,7 C 19,4 C 51 % 1018,1 hPa 0,0 l/m 2 min 0 min 298 W/m 3,2 km/h (1 Bft) 100,00 %
06.07.2023 19:32 23,7 C 27,2 C 19,4 C 52 % 1018,1 hPa 0,0 l/m 2 min 0 min 315 W/m 6,4 km/h (2 Bft) 100,00 %
06.07.2023 19:34 23,8 C 26,7 C 19,4 C 50 % 1018,2 hPa 0,0 l/m 2 min 0 min 298 W/m 6,4 km/h (2 Bft) 100,00 %
06.07.2023 19:36 23,7 C 26,1 C 19,4 C 50 % 1018,2 hPa 0,0 l/m 2 min 0 min 289 W/m 3,2 km/h (1 Bft) 97,87 %
06.07.2023 19:38 23,7 C 26,1 C 19,4 C 50 % 1018,2 hPa 0,0 l/m 2 min 0 min 265 W/m 12,9 km/h (3 Bft) 100,00 %
06.07.2023 19:40 23,6 C 25,0 C 19,4 C 49 % 1018,2 hPa 0,0 l/m 2 min 0 min 262 W/m 6,4 km/h (2 Bft) 100,00 %
06.07.2023 19:42 23,5 C 24,4 C 19,4 C 50 % 1018,2 hPa 0,0 l/m 2 min 0 min 273 W/m 6,4 km/h (2 Bft) 97,83 %
06.07.2023 19:44 23,5 C 23,9 C 19,4 C 50 % 1018,2 hPa 0,0 l/m 2 min 0 min 230 W/m 6,4 km/h (2 Bft) 97,87 %
06.07.2023 19:46 23,6 C 23,9 C 19,4 C 50 % 1018,2 hPa 0,0 l/m 2 min 0 min 197 W/m 3,2 km/h (1 Bft) 100,00 %
06.07.2023 19:48 23,6 C 23,3 C 18,9 C 51 % 1018,2 hPa 0,0 l/m 2 min 0 min 164 W/m 6,4 km/h (2 Bft) 100,00 %
06.07.2023 19:50 23,5 C 23,3 C 18,9 C 51 % 1018,3 hPa 0,0 l/m 0 min 0 min 115 W/m 9,7 km/h (2 Bft) 97,87 %
06.07.2023 19:52 23,4 C 22,8 C 18,9 C 51 % 1018,3 hPa 0,0 l/m 0 min 0 min 75 W/m 6,4 km/h (2 Bft) 95,74 %
06.07.2023 19:54 23,4 C 22,8 C 18,9 C 50 % 1018,3 hPa 0,0 l/m 2 min 0 min 128 W/m 6,4 km/h (2 Bft) 97,83 %
06.07.2023 19:56 23,3 C 22,8 C 18,9 C 50 % 1018,3 hPa 0,0 l/m 2 min 0 min 165 W/m 6,4 km/h (2 Bft) 100,00 %
06.07.2023 19:58 23,2 C 22,8 C 18,9 C 51 % 1018,3 hPa 0,0 l/m 2 min 0 min 156 W/m 3,2 km/h (1 Bft) 97,87 %
06.07.2023 20:00 23,1 C 22,8 C 18,9 C 52 % 1018,4 hPa 0,0 l/m 0 min 0 min 116 W/m 3,2 km/h (1 Bft) 95,74 %
06.07.2023 20:02 23,1 C 22,2 C 18,3 C 52 % 1018,3 hPa 0,0 l/m 0 min 0 min 70 W/m 6,4 km/h (2 Bft) 95,74 %
06.07.2023 20:04 23,1 C 22,2 C 18,3 C 53 % 1018,3 hPa 0,0 l/m 0 min 0 min 60 W/m 3,2 km/h (1 Bft) 97,96 %
06.07.2023 20:06 23,1 C 22,2 C 18,3 C 52 % 1018,3 hPa 0,0 l/m 0 min 0 min 55 W/m 3,2 km/h (1 Bft) 96,55 %
06.07.2023 20:08 23,1 C 22,2 C 18,3 C 54 % 1018,3 hPa 0,0 l/m 0 min 0 min 53 W/m 3,2 km/h (1 Bft) 97,14 %
06.07.2023 20:10 23,1 C 22,2 C 18,3 C 53 % 1018,3 hPa 0,0 l/m 0 min 0 min 51 W/m 3,2 km/h (1 Bft) 97,87 %
06.07.2023 20:12 23,1 C 22,2 C 18,3 C 53 % 1018,3 hPa 0,0 l/m 0 min 0 min 49 W/m 3,2 km/h (1 Bft) 97,87 %
06.07.2023 20:14 23,0 C 22,2 C 18,3 C 53 % 1018,3 hPa 0,0 l/m 0 min 0 min 51 W/m 3,2 km/h (1 Bft) 97,87 %
06.07.2023 20:16 22,9 C 22,2 C 17,8 C 54 % 1018,3 hPa 0,0 l/m 0 min 0 min 50 W/m 3,2 km/h (1 Bft) 95,74 %
06.07.2023 20:18 22,9 C 21,7 C 17,8 C 53 % 1018,4 hPa 0,0 l/m 0 min 0 min 49 W/m 3,2 km/h (1 Bft) 95,74 %
06.07.2023 20:20 22,9 C 21,7 C 17,8 C 53 % 1018,3 hPa 0,0 l/m 0 min 0 min 48 W/m 3,2 km/h (1 Bft) 95,74 %
06.07.2023 20:22 22,8 C 21,7 C 17,8 C 53 % 1018,4 hPa 0,0 l/m 0 min 0 min 46 W/m 3,2 km/h (1 Bft) 97,83 %
06.07.2023 20:24 22,8 C 21,7 C 17,8 C 53 % 1018,3 hPa 0,0 l/m 0 min 0 min 43 W/m 6,4 km/h (2 Bft) 95,74 %
06.07.2023 20:26 22,8 C 21,7 C 17,8 C 54 % 1018,4 hPa 0,0 l/m 0 min 0 min 41 W/m 3,2 km/h (1 Bft) 95,74 %
06.07.2023 20:28 22,7 C 21,7 C 17,8 C 54 % 1018,4 hPa 0,0 l/m 0 min 0 min 40 W/m 3,2 km/h (1 Bft) 93,62 %
06.07.2023 20:30 22,7 C 21,7 C 17,8 C 53 % 1018,4 hPa 0,0 l/m 0 min 0 min 35 W/m 3,2 km/h (1 Bft) 95,74 %
06.07.2023 20:32 22,6 C 21,1 C 17,8 C 54 % 1018,4 hPa 0,0 l/m 0 min 0 min 34 W/m 3,2 km/h (1 Bft) 95,74 %
06.07.2023 20:34 22,6 C 21,1 C 17,8 C 56 % 1018,4 hPa 0,0 l/m 0 min 0 min 33 W/m 0,0 km/h (0 Bft) 93,48 %
06.07.2023 20:36 22,5 C 21,1 C 17,2 C 55 % 1018,4 hPa 0,0 l/m 0 min 0 min 37 W/m 3,2 km/h (1 Bft) 93,62 %
06.07.2023 20:38 22,4 C 21,1 C 17,2 C 55 % 1018,4 hPa 0,0 l/m 0 min 0 min 37 W/m 3,2 km/h (1 Bft) 93,62 %
06.07.2023 20:40 22,3 C 21,1 C 17,2 C 55 % 1018,4 hPa 0,0 l/m 0 min 0 min 35 W/m 3,2 km/h (1 Bft) 93,62 %
06.07.2023 20:42 22,3 C 21,1 C 17,2 C 56 % 1018,4 hPa 0,0 l/m 0 min 0 min 35 W/m 0,0 km/h (0 Bft) 93,62 %
06.07.2023 20:44 22,3 C 20,6 C 17,2 C 57 % 1018,4 hPa 0,0 l/m 0 min 0 min 34 W/m 3,2 km/h (1 Bft) 93,62 %
06.07.2023 20:46 22,2 C 20,6 C 17,2 C 57 % 1018,4 hPa 0,0 l/m 0 min 0 min 33 W/m 0,0 km/h (0 Bft) 91,49 %
06.07.2023 20:48 22,2 C 20,6 C 17,2 C 58 % 1018,5 hPa 0,0 l/m 0 min 0 min 32 W/m 0,0 km/h (0 Bft) 91,30 %
06.07.2023 20:50 22,1 C 20,6 C 16,7 C 58 % 1018,4 hPa 0,0 l/m 0 min 0 min 31 W/m 0,0 km/h (0 Bft) 95,74 %
06.07.2023 20:52 22,1 C 20,6 C 16,7 C 59 % 1018,5 hPa 0,0 l/m 0 min 0 min 30 W/m 0,0 km/h (0 Bft) 93,62 %
06.07.2023 20:54 22,0 C 20,0 C 16,7 C 60 % 1018,4 hPa 0,0 l/m 0 min 0 min 30 W/m 0,0 km/h (0 Bft) 96,30 %
06.07.2023 20:56 21,9 C 20,0 C 16,7 C 59 % 1018,5 hPa 0,0 l/m 0 min 0 min 29 W/m 0,0 km/h (0 Bft) 95,74 %
06.07.2023 20:58 21,9 C 20,0 C 16,7 C 59 % 1018,4 hPa 0,0 l/m 0 min 0 min 28 W/m 3,2 km/h (1 Bft) 97,87 %
06.07.2023 21:00 21,8 C 20,0 C 16,7 C 59 % 1018,5 hPa 0,0 l/m 0 min 0 min 28 W/m 0,0 km/h (0 Bft) 97,83 %
06.07.2023 21:02 21,8 C 20,0 C 16,7 C 60 % 1018,5 hPa 0,0 l/m 0 min 0 min 26 W/m 3,2 km/h (1 Bft) 97,87 %
06.07.2023 21:04 21,7 C 20,0 C 16,7 C 60 % 1018,5 hPa 0,0 l/m 0 min 0 min 26 W/m 0,0 km/h (0 Bft) 97,87 %
06.07.2023 21:06 21,6 C 20,0 C 16,7 C 59 % 1018,5 hPa 0,0 l/m 0 min 0 min 26 W/m 3,2 km/h (1 Bft) 95,83 %
06.07.2023 21:08 21,6 C 20,0 C 16,1 C 59 % 1018,5 hPa 0,0 l/m 0 min 0 min 25 W/m 3,2 km/h (1 Bft) 97,87 %
06.07.2023 21:10 21,6 C 20,0 C 16,1 C 59 % 1018,5 hPa 0,0 l/m 0 min 0 min 24 W/m 3,2 km/h (1 Bft) 97,87 %
06.07.2023 21:12 21,5 C 19,4 C 16,1 C 60 % 1018,5 hPa 0,0 l/m 0 min 0 min 23 W/m 0,0 km/h (0 Bft) 97,83 %
06.07.2023 21:14 21,5 C 19,4 C 16,1 C 61 % 1018,5 hPa 0,0 l/m 0 min 0 min 21 W/m 0,0 km/h (0 Bft) 97,87 %
06.07.2023 21:16 21,4 C 19,4 C 16,1 C 62 % 1018,5 hPa 0,0 l/m 0 min 0 min 20 W/m 0,0 km/h (0 Bft) 97,87 %
06.07.2023 21:18 21,3 C 19,4 C 16,1 C 61 % 1018,5 hPa 0,0 l/m 0 min 0 min 19 W/m 0,0 km/h (0 Bft) 97,87 %
06.07.2023 21:20 21,3 C 19,4 C 16,1 C 62 % 1018,5 hPa 0,0 l/m 0 min 0 min 18 W/m 0,0 km/h (0 Bft) 100,00 %
06.07.2023 21:22 21,2 C 18,9 C 15,6 C 62 % 1018,5 hPa 0,0 l/m 0 min 0 min 18 W/m 0,0 km/h (0 Bft) 97,87 %
06.07.2023 21:24 21,1 C 18,9 C 15,6 C 63 % 1018,5 hPa 0,0 l/m 0 min 0 min 16 W/m 0,0 km/h (0 Bft) 100,00 %
06.07.2023 21:26 21,1 C 18,9 C 15,6 C 64 % 1018,6 hPa 0,0 l/m 0 min 0 min 16 W/m 0,0 km/h (0 Bft) 100,00 %
06.07.2023 21:28 21,0 C 18,9 C 15,6 C 65 % 1018,6 hPa 0,0 l/m 0 min 0 min 14 W/m 0,0 km/h (0 Bft) 100,00 %
06.07.2023 21:30 20,9 C 18,9 C 15,6 C 65 % 1018,6 hPa 0,0 l/m 0 min 0 min 13 W/m 0,0 km/h (0 Bft) 100,00 %
06.07.2023 21:32 20,8 C 18,9 C 15,6 C 66 % 1018,6 hPa 0,0 l/m 0 min 0 min 12 W/m 0,0 km/h (0 Bft) 100,00 %
06.07.2023 21:34 20,8 C 18,3 C 15,0 C 66 % 1018,6 hPa 0,0 l/m 0 min 0 min 11 W/m 0,0 km/h (0 Bft) 100,00 %
06.07.2023 21:36 20,7 C 18,3 C 15,0 C 66 % 1018,6 hPa 0,0 l/m 0 min 0 min 11 W/m 0,0 km/h (0 Bft) 100,00 %
06.07.2023 21:38 20,6 C 18,3 C 15,0 C 66 % 1018,7 hPa 0,0 l/m 0 min 0 min 9 W/m 0,0 km/h (0 Bft) 100,00 %
06.07.2023 21:40 20,5 C 18,3 C 15,0 C 65 % 1018,7 hPa 0,0 l/m 0 min 0 min 9 W/m 0,0 km/h (0 Bft) 100,00 %
06.07.2023 21:42 20,4 C 18,3 C 15,0 C 66 % 1018,7 hPa 0,0 l/m 0 min 0 min 7 W/m 0,0 km/h (0 Bft) 97,87 %
06.07.2023 21:44 20,3 C 18,3 C 15,0 C 67 % 1018,7 hPa 0,0 l/m 0 min 0 min 7 W/m 0,0 km/h (0 Bft) 97,87 %
06.07.2023 21:46 20,2 C 18,3 C 15,0 C 67 % 1018,8 hPa 0,0 l/m 0 min 0 min 5 W/m 0,0 km/h (0 Bft) 100,00 %
06.07.2023 21:48 20,2 C 17,8 C 15,0 C 67 % 1018,8 hPa 0,0 l/m 0 min 0 min 5 W/m 0,0 km/h (0 Bft) 100,00 %
06.07.2023 21:50 20,1 C 17,8 C 15,0 C 68 % 1018,8 hPa 0,0 l/m 0 min 0 min 3 W/m 0,0 km/h (0 Bft) 100,00 %
06.07.2023 21:52 20,0 C 17,8 C 14,4 C 68 % 1018,8 hPa 0,0 l/m 0 min 0 min 0 W/m 0,0 km/h (0 Bft) 100,00 %
06.07.2023 21:54 19,9 C 17,8 C 14,4 C 68 % 1018,9 hPa 0,0 l/m 0 min 0 min 0 W/m 0,0 km/h (0 Bft) 100,00 %
06.07.2023 21:56 19,8 C 17,8 C 14,4 C 69 % 1018,9 hPa 0,0 l/m 0 min 0 min 0 W/m 0,0 km/h (0 Bft) 100,00 %
06.07.2023 21:58 19,7 C 17,2 C 14,4 C 69 % 1019,0 hPa 0,0 l/m 0 min 0 min 0 W/m 0,0 km/h (0 Bft) 97,87 %
06.07.2023 22:00 19,7 C 17,2 C 14,4 C 69 % 1019,0 hPa 0,0 l/m 0 min 0 min 0 W/m 0,0 km/h (0 Bft) 100,00 %
06.07.2023 22:02 19,6 C 17,2 C 14,4 C 69 % 1019,0 hPa 0,0 l/m 0 min 0 min 0 W/m 0,0 km/h (0 Bft) 100,00 %
06.07.2023 22:04 19,4 C 17,2 C 14,4 C 70 % 1018,9 hPa 0,0 l/m 0 min 0 min 0 W/m 0,0 km/h (0 Bft) 97,87 %
06.07.2023 22:06 19,4 C 17,2 C 13,9 C 71 % 1019,0 hPa 0,0 l/m 0 min 0 min 0 W/m 0,0 km/h (0 Bft) 100,00 %
06.07.2023 22:08 19,3 C 17,2 C 13,9 C 71 % 1019,0 hPa 0,0 l/m 0 min 0 min 0 W/m 0,0 km/h (0 Bft) 97,87 %
06.07.2023 22:10 19,2 C 16,7 C 13,9 C 71 % 1019,0 hPa 0,0 l/m 0 min 0 min 0 W/m 0,0 km/h (0 Bft) 100,00 %
06.07.2023 22:12 19,2 C 16,7 C 13,9 C 72 % 1019,0 hPa 0,0 l/m 0 min 0 min 0 W/m 0,0 km/h (0 Bft) 95,74 %
06.07.2023 22:14 19,1 C 16,7 C 13,9 C 72 % 1019,0 hPa 0,0 l/m 0 min 0 min 0 W/m 0,0 km/h (0 Bft) 100,00 %
06.07.2023 22:16 19,0 C 16,7 C 13,9 C 72 % 1019,0 hPa 0,0 l/m 0 min 0 min 0 W/m 0,0 km/h (0 Bft) 100,00 %
06.07.2023 22:18 18,9 C 16,7 C 13,9 C 73 % 1019,1 hPa 0,0 l/m 0 min 0 min 0 W/m 0,0 km/h (0 Bft) 96,55 %
06.07.2023 22:20 18,8 C 16,7 C 13,9 C 73 % 1019,0 hPa 0,0 l/m 0 min 0 min 0 W/m 0,0 km/h (0 Bft) 97,22 %
06.07.2023 22:22 18,7 C 16,7 C 13,9 C 73 % 1019,1 hPa 0,0 l/m 0 min 0 min 0 W/m 0,0 km/h (0 Bft) 97,83 %
06.07.2023 22:24 18,6 C 16,7 C 13,3 C 73 % 1019,0 hPa 0,0 l/m 0 min 0 min 0 W/m 0,0 km/h (0 Bft) 98,31 %
06.07.2023 22:26 18,5 C 16,7 C 13,3 C 73 % 1019,1 hPa 0,0 l/m 0 min 0 min 0 W/m 0,0 km/h (0 Bft) 97,14 %
06.07.2023 22:28 18,4 C 16,7 C 13,3 C 73 % 1019,1 hPa 0,0 l/m 0 min 0 min 0 W/m 0,0 km/h (0 Bft) 96,61 %
06.07.2023 22:30 18,3 C 16,1 C 13,3 C 73 % 1019,1 hPa 0,0 l/m 0 min 0 min 0 W/m 0,0 km/h (0 Bft) 97,14 %
06.07.2023 22:32 18,3 C 16,1 C 13,3 C 74 % 1019,1 hPa 0,0 l/m 0 min 0 min 0 W/m 0,0 km/h (0 Bft) 97,87 %
06.07.2023 22:34 18,2 C 16,1 C 13,3 C 74 % 1019,1 hPa 0,0 l/m 0 min 0 min 0 W/m 0,0 km/h (0 Bft) 97,83 %
06.07.2023 22:36 18,1 C 16,1 C 13,3 C 74 % 1019,1 hPa 0,0 l/m 0 min 0 min 0 W/m 0,0 km/h (0 Bft) 98,00 %
06.07.2023 22:38 18,1 C 16,1 C 13,3 C 74 % 1019,1 hPa 0,0 l/m 0 min 0 min 0 W/m 0,0 km/h (0 Bft) 95,74 %
06.07.2023 22:40 17,9 C 16,1 C 13,3 C 74 % 1019,1 hPa 0,0 l/m 0 min 0 min 0 W/m 0,0 km/h (0 Bft) 95,45 %
06.07.2023 22:42 17,9 C 16,1 C 13,3 C 75 % 1019,2 hPa 0,0 l/m 0 min 0 min 0 W/m 0,0 km/h (0 Bft) 94,23 %
06.07.2023 22:44 17,8 C 16,1 C 13,3 C 75 % 1019,2 hPa 0,0 l/m 0 min 0 min 0 W/m 0,0 km/h (0 Bft) 93,62 %
06.07.2023 22:46 17,8 C 16,1 C 12,8 C 75 % 1019,2 hPa 0,0 l/m 0 min 0 min 0 W/m 0,0 km/h (0 Bft) 95,74 %
06.07.2023 22:48 17,7 C 16,1 C 12,8 C 76 % 1019,2 hPa 0,0 l/m 0 min 0 min 0 W/m 0,0 km/h (0 Bft) 97,87 %
06.07.2023 22:50 17,7 C 15,6 C 12,8 C 76 % 1019,2 hPa 0,0 l/m 0 min 0 min 0 W/m 0,0 km/h (0 Bft) 97,87 %
06.07.2023 22:52 17,6 C 15,6 C 12,8 C 76 % 1019,2 hPa 0,0 l/m 0 min 0 min 0 W/m 0,0 km/h (0 Bft) 95,35 %
06.07.2023 22:54 17,6 C 15,6 C 12,8 C 76 % 1019,2 hPa 0,0 l/m 0 min 0 min 0 W/m 0,0 km/h (0 Bft) 97,92 %
06.07.2023 22:56 17,5 C 15,6 C 12,8 C 76 % 1019,2 hPa 0,0 l/m 0 min 0 min 0 W/m 0,0 km/h (0 Bft) 98,00 %
06.07.2023 22:58 17,4 C 15,6 C 12,8 C 77 % 1019,3 hPa 0,0 l/m 0 min 0 min 0 W/m 0,0 km/h (0 Bft) 97,87 %
06.07.2023 23:00 17,4 C 15,6 C 12,8 C 77 % 1019,3 hPa 0,0 l/m 0 min 0 min 0 W/m 0,0 km/h (0 Bft) 97,83 %
06.07.2023 23:02 17,3 C 15,6 C 12,8 C 77 % 1019,3 hPa 0,0 l/m 0 min 0 min 0 W/m 0,0 km/h (0 Bft) 95,74 %
06.07.2023 23:04 17,3 C 15,6 C 12,8 C 77 % 1019,4 hPa 0,0 l/m 0 min 0 min 0 W/m 0,0 km/h (0 Bft) 97,87 %
06.07.2023 23:06 17,2 C 15,6 C 12,8 C 78 % 1019,4 hPa 0,0 l/m 0 min 0 min 0 W/m 0,0 km/h (0 Bft) 95,08 %
06.07.2023 23:08 17,2 C 15,6 C 12,8 C 78 % 1019,4 hPa 0,0 l/m 0 min 0 min 0 W/m 0,0 km/h (0 Bft) 97,14 %
06.07.2023 23:10 17,1 C 15,6 C 12,8 C 78 % 1019,4 hPa 0,0 l/m 0 min 0 min 0 W/m 0,0 km/h (0 Bft) 55,32 %
06.07.2023 23:12 17,1 C 15,6 C 12,8 C 78 % 1019,5 hPa 0,0 l/m 0 min 0 min 0 W/m 0,0 km/h (0 Bft) 97,83 %
06.07.2023 23:14 17,0 C 15,6 C 12,8 C 79 % 1019,4 hPa 0,0 l/m 0 min 0 min 0 W/m 0,0 km/h (0 Bft) 97,87 %
06.07.2023 23:16 16,9 C 15,6 C 12,8 C 79 % 1019,5 hPa 0,0 l/m 0 min 0 min 0 W/m 0,0 km/h (0 Bft) 95,74 %
06.07.2023 23:18 16,9 C 15,6 C 12,8 C 79 % 1019,5 hPa 0,0 l/m 0 min 0 min 0 W/m 0,0 km/h (0 Bft) 100,00 %
06.07.2023 23:20 16,8 C 15,0 C 12,2 C 79 % 1019,5 hPa 0,0 l/m 0 min 0 min 0 W/m 0,0 km/h (0 Bft) 97,92 %
06.07.2023 23:22 16,8 C 15,0 C 12,2 C 79 % 1019,4 hPa 0,0 l/m 0 min 0 min 0 W/m 0,0 km/h (0 Bft) 100,00 %
06.07.2023 23:24 16,7 C 15,0 C 12,2 C 79 % 1019,5 hPa 0,0 l/m 0 min 0 min 0 W/m 0,0 km/h (0 Bft) 100,00 %
06.07.2023 23:26 16,7 C 15,0 C 12,2 C 79 % 1019,5 hPa 0,0 l/m 0 min 0 min 0 W/m 0,0 km/h (0 Bft) 100,00 %
06.07.2023 23:28 16,6 C 15,0 C 12,2 C 80 % 1019,5 hPa 0,0 l/m 0 min 0 min 0 W/m 0,0 km/h (0 Bft) 100,00 %
06.07.2023 23:30 16,6 C 15,0 C 12,2 C 80 % 1019,6 hPa 0,0 l/m 0 min 0 min 0 W/m 0,0 km/h (0 Bft) 97,96 %
06.07.2023 23:32 16,6 C 15,0 C 12,2 C 80 % 1019,5 hPa 0,0 l/m 0 min 0 min 0 W/m 0,0 km/h (0 Bft) 100,00 %
06.07.2023 23:34 16,5 C 15,0 C 12,2 C 80 % 1019,5 hPa 0,0 l/m 0 min 0 min 0 W/m 0,0 km/h (0 Bft) 100,00 %
06.07.2023 23:36 16,4 C 15,0 C 12,2 C 80 % 1019,6 hPa 0,0 l/m 0 min 0 min 0 W/m 0,0 km/h (0 Bft) 100,00 %
06.07.2023 23:38 16,4 C 15,0 C 12,2 C 80 % 1019,5 hPa 0,0 l/m 0 min 0 min 0 W/m 0,0 km/h (0 Bft) 97,87 %
06.07.2023 23:40 16,3 C 15,0 C 12,2 C 80 % 1019,5 hPa 0,0 l/m 0 min 0 min 0 W/m 0,0 km/h (0 Bft) 100,00 %
06.07.2023 23:42 16,3 C 15,0 C 12,2 C 81 % 1019,5 hPa 0,0 l/m 0 min 0 min 0 W/m 0,0 km/h (0 Bft) 97,87 %
06.07.2023 23:44 16,3 C 14,4 C 12,2 C 81 % 1019,5 hPa 0,0 l/m 0 min 0 min 0 W/m 0,0 km/h (0 Bft) 97,87 %
06.07.2023 23:46 16,3 C 14,4 C 12,2 C 81 % 1019,5 hPa 0,0 l/m 0 min 0 min 0 W/m 0,0 km/h (0 Bft) 95,74 %
06.07.2023 23:48 16,2 C 14,4 C 12,2 C 81 % 1019,6 hPa 0,0 l/m 0 min 0 min 0 W/m 0,0 km/h (0 Bft) 93,62 %
06.07.2023 23:50 16,2 C 14,4 C 12,2 C 81 % 1019,6 hPa 0,0 l/m 0 min 0 min 0 W/m 0,0 km/h (0 Bft) 97,87 %
06.07.2023 23:52 16,1 C 14,4 C 12,2 C 81 % 1019,7 hPa 0,0 l/m 0 min 0 min 0 W/m 0,0 km/h (0 Bft) 97,87 %
06.07.2023 23:54 16,1 C 14,4 C 12,2 C 81 % 1019,7 hPa 0,0 l/m 0 min 0 min 0 W/m 0,0 km/h (0 Bft) 95,65 %
06.07.2023 23:56 16,1 C 14,4 C 11,7 C 81 % 1019,7 hPa 0,0 l/m 0 min 0 min 0 W/m 0,0 km/h (0 Bft) 95,74 %
06.07.2023 23:58 16,1 C 14,4 C 11,7 C 81 % 1019,7 hPa 0,0 l/m 0 min 0 min 0 W/m 0,0 km/h (0 Bft) 94,34 %
_ Min-Zeit 05:44 03:28 04:24 18:38 00:00 - - - - 00:12 01:28
Minimum _ 12,0 C 11,7 C 8,9 C 48 % 1016,0 hPa - - - - 0,0 km/h (0 Bft) 28,12 %
_ Max-Zeit 16:52 16:52 12:50 02:42 23:52 00:00 18:08 00:00 13:52 15:28 00:52
Maximum _ 24,8 C 30,0 C 25,6 C 93 % 1019,7 hPa 0,0 l/m 4 min 0 min 1034 W/m 32,2 km/h
S (5 Bft)
100,00 %
Durchschnitt _ 18,3 C 19,4 C 15,2 C 73 % 1017,9 hPa #0,0 l/m #9:36 h #0 min. 419 W/m 8,1 km/h (2 Bft) 97,22 %
© 2023 W. Hausmann